<?xml version='1.0' encoding='UTF-8'?><gpx version="1.1" creator="JPX - https://github.com/jenetics/jpx" xmlns="http://www.topografix.com/GPX/1/1"><trk><trkseg><trkpt lat="44.72334544288774" lon="9.979568687376895"><ele>478.00000000000006</ele><time>2026-04-11T14:14:47Z</time></trkpt><trkpt lat="44.72339179796509" lon="9.97966666212608"><ele>478.0</ele><time>2026-04-11T14:14:49Z</time></trkpt><trkpt lat="44.723442466942956" lon="9.979730351974386"><ele>478.0</ele><time>2026-04-11T14:14:51Z</time></trkpt><trkpt lat="44.72350290246251" lon="9.979778612895032"><ele>478.0</ele><time>2026-04-11T14:14:55Z</time></trkpt><trkpt lat="44.72358693301739" lon="9.979750352103379"><ele>478.00000000000006</ele><time>2026-04-11T14:14:59Z</time></trkpt><trkpt lat="44.7236388327763" lon="9.979666215894545"><ele>478.0</ele><time>2026-04-11T14:15:00Z</time></trkpt><trkpt lat="44.72369939341963" lon="9.979565227306926"><ele>476.79999999999995</ele><time>2026-04-11T14:15:01Z</time></trkpt><trkpt lat="44.723767892163536" lon="9.979464479108366"><ele>475.59999999999997</ele><time>2026-04-11T14:15:02Z</time></trkpt><trkpt lat="44.72383507732488" lon="9.979411564838845"><ele>474.40000000000003</ele><time>2026-04-11T14:15:03Z</time></trkpt><trkpt lat="44.723883300684236" lon="9.979336040904329"><ele>473.20000000000005</ele><time>2026-04-11T14:15:05Z</time></trkpt><trkpt lat="44.723971119294156" lon="9.979521896222286"><ele>472.0</ele><time>2026-04-11T14:15:08Z</time></trkpt><trkpt lat="44.72402195243002" lon="9.979610315232978"><ele>472.0</ele><time>2026-04-11T14:15:09Z</time></trkpt><trkpt lat="44.724066212618894" lon="9.979727000246168"><ele>472.00000000000006</ele><time>2026-04-11T14:15:10Z</time></trkpt><trkpt lat="44.7241163162027" lon="9.979848791337343"><ele>472.00000000000006</ele><time>2026-04-11T14:15:11Z</time></trkpt><trkpt lat="44.72417044063303" lon="9.979965258445505"><ele>472.0</ele><time>2026-04-11T14:15:12Z</time></trkpt><trkpt lat="44.72423305360495" lon="9.980090164412966"><ele>472.0</ele><time>2026-04-11T14:15:13Z</time></trkpt><trkpt lat="44.72430040742547" lon="9.980215160850696"><ele>471.5</ele><time>2026-04-11T14:15:14Z</time></trkpt><trkpt lat="44.724372788871506" lon="9.980345558558183"><ele>471.0</ele><time>2026-04-11T14:15:15Z</time></trkpt><trkpt lat="44.72444363787988" lon="9.980479099650298"><ele>470.5</ele><time>2026-04-11T14:15:16Z</time></trkpt><trkpt lat="44.72451849218726" lon="9.980620464652976"><ele>470.0</ele><time>2026-04-11T14:15:17Z</time></trkpt><trkpt lat="44.72459981649095" lon="9.980761938981491"><ele>468.5</ele><time>2026-04-11T14:15:18Z</time></trkpt><trkpt lat="44.72467872707756" lon="9.980907114292625"><ele>467.0</ele><time>2026-04-11T14:15:19Z</time></trkpt><trkpt lat="44.7247504797797" lon="9.981039928900977"><ele>465.5</ele><time>2026-04-11T14:15:20Z</time></trkpt><trkpt lat="44.72481783473769" lon="9.981159720159761"><ele>464.0</ele><time>2026-04-11T14:15:21Z</time></trkpt><trkpt lat="44.72487839401902" lon="9.98126979300595"><ele>464.0</ele><time>2026-04-11T14:15:22Z</time></trkpt><trkpt lat="44.72493706605521" lon="9.981373052143203"><ele>464.0</ele><time>2026-04-11T14:15:23Z</time></trkpt><trkpt lat="44.724995835032665" lon="9.98150248942018"><ele>464.0</ele><time>2026-04-11T14:15:24Z</time></trkpt><trkpt lat="44.72504361277183" lon="9.98160065132191"><ele>464.0</ele><time>2026-04-11T14:15:25Z</time></trkpt><trkpt lat="44.725075653576646" lon="9.981693233203556"><ele>464.0</ele><time>2026-04-11T14:15:26Z</time></trkpt><trkpt lat="44.725054410409136" lon="9.98187082967487"><ele>462.75</ele><time>2026-04-11T14:15:28Z</time></trkpt><trkpt lat="44.72499303126321" lon="9.982007135626866"><ele>461.5</ele><time>2026-04-11T14:15:30Z</time></trkpt><trkpt lat="44.72495850565714" lon="9.982155046263221"><ele>460.25</ele><time>2026-04-11T14:15:32Z</time></trkpt><trkpt lat="44.72493734796703" lon="9.982304549090282"><ele>459.0</ele><time>2026-04-11T14:15:34Z</time></trkpt><trkpt lat="44.724905320328006" lon="9.982467271914269"><ele>458.3333333333333</ele><time>2026-04-11T14:15:36Z</time></trkpt><trkpt lat="44.72488437412996" lon="9.98255175818293"><ele>457.66666666666663</ele><time>2026-04-11T14:15:37Z</time></trkpt><trkpt lat="44.72485321454671" lon="9.982721498501778"><ele>457.0</ele><time>2026-04-11T14:15:39Z</time></trkpt><trkpt lat="44.72485458663818" lon="9.982817990583985"><ele>456.3333333333333</ele><time>2026-04-11T14:15:40Z</time></trkpt><trkpt lat="44.724870163533005" lon="9.982918535914042"><ele>455.66666666666663</ele><time>2026-04-11T14:15:41Z</time></trkpt><trkpt lat="44.72488921909443" lon="9.983036591311203"><ele>455.0</ele><time>2026-04-11T14:15:42Z</time></trkpt><trkpt lat="44.72490088659889" lon="9.983161354374863"><ele>455.0</ele><time>2026-04-11T14:15:43Z</time></trkpt><trkpt lat="44.7249194834215" lon="9.983265683393332"><ele>455.0</ele><time>2026-04-11T14:15:44Z</time></trkpt><trkpt lat="44.72495978908903" lon="9.983372447358379"><ele>455.0</ele><time>2026-04-11T14:15:45Z</time></trkpt><trkpt lat="44.72501838090658" lon="9.983462241588814"><ele>455.0</ele><time>2026-04-11T14:15:46Z</time></trkpt><trkpt lat="44.72511733404678" lon="9.983588520531242"><ele>455.0</ele><time>2026-04-11T14:15:47Z</time></trkpt><trkpt lat="44.72521019070064" lon="9.983700258212803"><ele>454.16666666666663</ele><time>2026-04-11T14:15:48Z</time></trkpt><trkpt lat="44.72527137993033" lon="9.98380829733285"><ele>453.3333333333333</ele><time>2026-04-11T14:15:49Z</time></trkpt><trkpt lat="44.72533157238254" lon="9.98390423348465"><ele>452.5</ele><time>2026-04-11T14:15:50Z</time></trkpt><trkpt lat="44.7253694476806" lon="9.983995333308142"><ele>451.66666666666663</ele><time>2026-04-11T14:15:51Z</time></trkpt><trkpt lat="44.72540268572087" lon="9.984075762854662"><ele>450.8333333333333</ele><time>2026-04-11T14:15:52Z</time></trkpt><trkpt lat="44.72542571022118" lon="9.984159275287587"><ele>450.0</ele><time>2026-04-11T14:15:53Z</time></trkpt><trkpt lat="44.72544203624326" lon="9.984255380729191"><ele>450.00000000000006</ele><time>2026-04-11T14:15:54Z</time></trkpt><trkpt lat="44.7254483410953" lon="9.984356520774558"><ele>450.0</ele><time>2026-04-11T14:15:55Z</time></trkpt><trkpt lat="44.725433155444485" lon="9.984452995021533"><ele>450.00000000000006</ele><time>2026-04-11T14:15:56Z</time></trkpt><trkpt lat="44.7254098654485" lon="9.984538622452094"><ele>450.00000000000006</ele><time>2026-04-11T14:15:57Z</time></trkpt><trkpt lat="44.72537067930515" lon="9.984608310607175"><ele>450.0</ele><time>2026-04-11T14:15:58Z</time></trkpt><trkpt lat="44.72531153105523" lon="9.98466164113817"><ele>450.00000000000006</ele><time>2026-04-11T14:15:59Z</time></trkpt><trkpt lat="44.72523664014672" lon="9.984728662302194"><ele>450.00000000000006</ele><time>2026-04-11T14:16:01Z</time></trkpt><trkpt lat="44.72520836542594" lon="9.984873400719135"><ele>450.1666666666667</ele><time>2026-04-11T14:16:03Z</time></trkpt><trkpt lat="44.72520139587795" lon="9.984973162607922"><ele>450.33333333333337</ele><time>2026-04-11T14:16:04Z</time></trkpt><trkpt lat="44.72519710703291" lon="9.985098390626513"><ele>450.5</ele><time>2026-04-11T14:16:05Z</time></trkpt><trkpt lat="44.72519552662774" lon="9.985230966547942"><ele>450.6666666666667</ele><time>2026-04-11T14:16:06Z</time></trkpt><trkpt lat="44.72519644589683" lon="9.985354403105744"><ele>450.83333333333337</ele><time>2026-04-11T14:16:07Z</time></trkpt><trkpt lat="44.7251906902504" lon="9.985499270240672"><ele>451.0</ele><time>2026-04-11T14:16:08Z</time></trkpt><trkpt lat="44.72518177382253" lon="9.985637863512942"><ele>451.83333333333337</ele><time>2026-04-11T14:16:09Z</time></trkpt><trkpt lat="44.725166582430205" lon="9.985762163618492"><ele>452.6666666666667</ele><time>2026-04-11T14:16:10Z</time></trkpt><trkpt lat="44.72516086468105" lon="9.985876402049392"><ele>453.5</ele><time>2026-04-11T14:16:11Z</time></trkpt><trkpt lat="44.72515927379745" lon="9.985987072641057"><ele>454.33333333333337</ele><time>2026-04-11T14:16:12Z</time></trkpt><trkpt lat="44.72516522985978" lon="9.986098100154537"><ele>455.1666666666667</ele><time>2026-04-11T14:16:13Z</time></trkpt><trkpt lat="44.72517664216407" lon="9.986195848243572"><ele>456.0</ele><time>2026-04-11T14:16:14Z</time></trkpt><trkpt lat="44.725199895761165" lon="9.986280423500705"><ele>455.6</ele><time>2026-04-11T14:16:15Z</time></trkpt><trkpt lat="44.72525897436842" lon="9.986421936316729"><ele>455.20000000000005</ele><time>2026-04-11T14:16:17Z</time></trkpt><trkpt lat="44.725245232921026" lon="9.986597758828688"><ele>454.79999999999995</ele><time>2026-04-11T14:16:19Z</time></trkpt><trkpt lat="44.72520274118671" lon="9.986720011597031"><ele>454.4</ele><time>2026-04-11T14:16:21Z</time></trkpt><trkpt lat="44.7252157423261" lon="9.986826594020856"><ele>454.0</ele><time>2026-04-11T14:16:23Z</time></trkpt><trkpt lat="44.7252181036268" lon="9.986955709764924"><ele>453.8571428571429</ele><time>2026-04-11T14:16:26Z</time></trkpt><trkpt lat="44.72519435694266" lon="9.987058766276116"><ele>453.7142857142858</ele><time>2026-04-11T14:16:28Z</time></trkpt><trkpt lat="44.72519418935928" lon="9.987166771859645"><ele>453.57142857142856</ele><time>2026-04-11T14:16:30Z</time></trkpt><trkpt lat="44.725203182911144" lon="9.987258612990857"><ele>453.42857142857144</ele><time>2026-04-11T14:16:32Z</time></trkpt><trkpt lat="44.725215272657756" lon="9.987355912319419"><ele>453.2857142857143</ele><time>2026-04-11T14:16:34Z</time></trkpt><trkpt lat="44.7252314495792" lon="9.987475885403935"><ele>453.1428571428571</ele><time>2026-04-11T14:16:36Z</time></trkpt><trkpt lat="44.72524666664943" lon="9.9875630321268"><ele>452.99999999999994</ele><time>2026-04-11T14:16:37Z</time></trkpt><trkpt lat="44.72526509329165" lon="9.987665807049048"><ele>453.0</ele><time>2026-04-11T14:16:38Z</time></trkpt><trkpt lat="44.725283647343105" lon="9.987763410070944"><ele>453.0</ele><time>2026-04-11T14:16:39Z</time></trkpt><trkpt lat="44.725322674693494" lon="9.98787722704668"><ele>453.0</ele><time>2026-04-11T14:16:40Z</time></trkpt><trkpt lat="44.72536620437465" lon="9.987978977871137"><ele>453.0</ele><time>2026-04-11T14:16:41Z</time></trkpt><trkpt lat="44.7254139400119" lon="9.98807280965928"><ele>453.0</ele><time>2026-04-11T14:16:42Z</time></trkpt><trkpt lat="44.72546312645657" lon="9.988150400215448"><ele>453.0</ele><time>2026-04-11T14:16:43Z</time></trkpt><trkpt lat="44.72551312613711" lon="9.988233551525608"><ele>453.0</ele><time>2026-04-11T14:16:44Z</time></trkpt><trkpt lat="44.72556899974841" lon="9.988332562921503"><ele>453.0</ele><time>2026-04-11T14:16:45Z</time></trkpt><trkpt lat="44.72561701587376" lon="9.988431103993632"><ele>453.0</ele><time>2026-04-11T14:16:46Z</time></trkpt><trkpt lat="44.72563987166397" lon="9.988537396295344"><ele>453.0</ele><time>2026-04-11T14:16:47Z</time></trkpt><trkpt lat="44.72564645698446" lon="9.988647020791058"><ele>453.0</ele><time>2026-04-11T14:16:49Z</time></trkpt><trkpt lat="44.72565501259609" lon="9.988770004846788"><ele>453.0</ele><time>2026-04-11T14:16:51Z</time></trkpt><trkpt lat="44.72567059362715" lon="9.988860680243075"><ele>453.2</ele><time>2026-04-11T14:16:52Z</time></trkpt><trkpt lat="44.725698001836065" lon="9.988971744183479"><ele>453.4</ele><time>2026-04-11T14:16:53Z</time></trkpt><trkpt lat="44.725726790583415" lon="9.989061987349206"><ele>453.59999999999997</ele><time>2026-04-11T14:16:54Z</time></trkpt><trkpt lat="44.72577951635237" lon="9.989203605488967"><ele>453.79999999999995</ele><time>2026-04-11T14:16:56Z</time></trkpt><trkpt lat="44.72582648545041" lon="9.989345888844998"><ele>454.0</ele><time>2026-04-11T14:16:58Z</time></trkpt><trkpt lat="44.72588492750411" lon="9.989470703678503"><ele>453.6666666666667</ele><time>2026-04-11T14:17:00Z</time></trkpt><trkpt lat="44.72595557215274" lon="9.989522221329489"><ele>453.33333333333337</ele><time>2026-04-11T14:17:03Z</time></trkpt><trkpt lat="44.72604226932021" lon="9.989607249971298"><ele>453.0</ele><time>2026-04-11T14:17:05Z</time></trkpt><trkpt lat="44.72610649861957" lon="9.98967246942259"><ele>452.66666666666663</ele><time>2026-04-11T14:17:06Z</time></trkpt><trkpt lat="44.726159425616956" lon="9.989754892296775"><ele>452.3333333333333</ele><time>2026-04-11T14:17:07Z</time></trkpt><trkpt lat="44.726211490979225" lon="9.989843447777382"><ele>452.0</ele><time>2026-04-11T14:17:08Z</time></trkpt><trkpt lat="44.726243920282684" lon="9.989948628095638"><ele>453.28571428571433</ele><time>2026-04-11T14:17:09Z</time></trkpt><trkpt lat="44.72626691651901" lon="9.990031983272738"><ele>454.57142857142856</ele><time>2026-04-11T14:17:10Z</time></trkpt><trkpt lat="44.726301536151375" lon="9.990108213208064"><ele>455.8571428571429</ele><time>2026-04-11T14:17:11Z</time></trkpt><trkpt lat="44.726353849617276" lon="9.990179226592025"><ele>457.14285714285717</ele><time>2026-04-11T14:17:12Z</time></trkpt><trkpt lat="44.72642055862453" lon="9.99025518116804"><ele>458.42857142857144</ele><time>2026-04-11T14:17:13Z</time></trkpt><trkpt lat="44.72647425769085" lon="9.990326051653215"><ele>459.7142857142857</ele><time>2026-04-11T14:17:14Z</time></trkpt><trkpt lat="44.72651197364818" lon="9.990412640217594"><ele>461.0</ele><time>2026-04-11T14:17:15Z</time></trkpt><trkpt lat="44.726534994704906" lon="9.990500281641776"><ele>460.99999999999994</ele><time>2026-04-11T14:17:16Z</time></trkpt><trkpt lat="44.7265506694271" lon="9.990589787491484"><ele>461.0</ele><time>2026-04-11T14:17:17Z</time></trkpt><trkpt lat="44.72654515730049" lon="9.990684507994157"><ele>461.0</ele><time>2026-04-11T14:17:18Z</time></trkpt><trkpt lat="44.72658221111099" lon="9.99085740218192"><ele>461.0</ele><time>2026-04-11T14:17:20Z</time></trkpt><trkpt lat="44.72661866240883" lon="9.990938625065972"><ele>460.99999999999994</ele><time>2026-04-11T14:17:21Z</time></trkpt><trkpt lat="44.72665881715762" lon="9.991014440505888"><ele>461.0</ele><time>2026-04-11T14:17:22Z</time></trkpt><trkpt lat="44.7267070594196" lon="9.991099625616636"><ele>460.66666666666663</ele><time>2026-04-11T14:17:23Z</time></trkpt><trkpt lat="44.72674930763642" lon="9.991190587772076"><ele>460.3333333333333</ele><time>2026-04-11T14:17:24Z</time></trkpt><trkpt lat="44.726783174091" lon="9.991277415068057"><ele>460.0</ele><time>2026-04-11T14:17:25Z</time></trkpt><trkpt lat="44.72681948239827" lon="9.991354051935966"><ele>459.66666666666663</ele><time>2026-04-11T14:17:26Z</time></trkpt><trkpt lat="44.72683256923198" lon="9.991511851113337"><ele>459.3333333333333</ele><time>2026-04-11T14:17:28Z</time></trkpt><trkpt lat="44.72682295627656" lon="9.991601546892632"><ele>459.0</ele><time>2026-04-11T14:17:29Z</time></trkpt><trkpt lat="44.726801472710726" lon="9.991686921749853"><ele>460.0</ele><time>2026-04-11T14:17:30Z</time></trkpt><trkpt lat="44.726775489713425" lon="9.991771718487872"><ele>461.0</ele><time>2026-04-11T14:17:31Z</time></trkpt><trkpt lat="44.72675020907763" lon="9.99185508082713"><ele>462.0</ele><time>2026-04-11T14:17:32Z</time></trkpt><trkpt lat="44.72673025796788" lon="9.991958167569452"><ele>463.0</ele><time>2026-04-11T14:17:33Z</time></trkpt><trkpt lat="44.72672440798483" lon="9.992052925555065"><ele>464.0</ele><time>2026-04-11T14:17:34Z</time></trkpt><trkpt lat="44.72671963446195" lon="9.992145439950383"><ele>465.0</ele><time>2026-04-11T14:17:35Z</time></trkpt><trkpt lat="44.72673104094698" lon="9.99231177489789"><ele>465.0</ele><time>2026-04-11T14:17:37Z</time></trkpt><trkpt lat="44.726799420206675" lon="9.992475703999064"><ele>465.0</ele><time>2026-04-11T14:17:39Z</time></trkpt><trkpt lat="44.726858511989796" lon="9.992569865066544"><ele>465.0</ele><time>2026-04-11T14:17:40Z</time></trkpt><trkpt lat="44.726927473143654" lon="9.992692247580738"><ele>465.0</ele><time>2026-04-11T14:17:41Z</time></trkpt><trkpt lat="44.72700026721961" lon="9.992863980841351"><ele>466.4</ele><time>2026-04-11T14:17:42Z</time></trkpt><trkpt lat="44.727064068450524" lon="9.993020458337828"><ele>467.8</ele><time>2026-04-11T14:17:43Z</time></trkpt><trkpt lat="44.72711105822721" lon="9.99314986345041"><ele>469.20000000000005</ele><time>2026-04-11T14:17:44Z</time></trkpt><trkpt lat="44.727148646124306" lon="9.99327452869243"><ele>470.6</ele><time>2026-04-11T14:17:45Z</time></trkpt><trkpt lat="44.72718612974068" lon="9.993377108596762"><ele>472.0</ele><time>2026-04-11T14:17:46Z</time></trkpt><trkpt lat="44.727226157130644" lon="9.99352125424683"><ele>473.8</ele><time>2026-04-11T14:17:47.999Z</time></trkpt><trkpt lat="44.72720825375776" lon="9.993714977365967"><ele>475.6</ele><time>2026-04-11T14:17:49.999Z</time></trkpt><trkpt lat="44.727204913536546" lon="9.993837504671275"><ele>477.40000000000003</ele><time>2026-04-11T14:17:50.999Z</time></trkpt><trkpt lat="44.72719814299384" lon="9.993976780929218"><ele>479.20000000000005</ele><time>2026-04-11T14:17:51.999Z</time></trkpt><trkpt lat="44.72718218975397" lon="9.99410922875039"><ele>481.0</ele><time>2026-04-11T14:17:52.999Z</time></trkpt><trkpt lat="44.727169253675086" lon="9.994221006257522"><ele>481.6</ele><time>2026-04-11T14:17:53.999Z</time></trkpt><trkpt lat="44.72717112925356" lon="9.994362891403686"><ele>482.20000000000005</ele><time>2026-04-11T14:17:54.999Z</time></trkpt><trkpt lat="44.72717316167535" lon="9.994507683348472"><ele>482.79999999999995</ele><time>2026-04-11T14:17:55.999Z</time></trkpt><trkpt lat="44.727175121608475" lon="9.994617201824282"><ele>483.4</ele><time>2026-04-11T14:17:56.999Z</time></trkpt><trkpt lat="44.727130261350844" lon="9.99479036133906"><ele>484.0</ele><time>2026-04-11T14:17:58.999Z</time></trkpt><trkpt lat="44.72708852675109" lon="9.994858448428284"><ele>487.0</ele><time>2026-04-11T14:17:59.999Z</time></trkpt><trkpt lat="44.72707390775853" lon="9.995020125038495"><ele>490.0</ele><time>2026-04-11T14:18:01.999Z</time></trkpt><trkpt lat="44.72712368032084" lon="9.995207586471414"><ele>493.0</ele><time>2026-04-11T14:18:03.999Z</time></trkpt><trkpt lat="44.72717278014355" lon="9.995300667752678"><ele>496.0</ele><time>2026-04-11T14:18:04.999Z</time></trkpt><trkpt lat="44.72721227380999" lon="9.995379428117548"><ele>499.0</ele><time>2026-04-11T14:18:05.999Z</time></trkpt><trkpt lat="44.72724158821792" lon="9.99546682936333"><ele>499.0</ele><time>2026-04-11T14:18:06.999Z</time></trkpt><trkpt lat="44.72722810789568" lon="9.995658229186208"><ele>499.0</ele><time>2026-04-11T14:18:08.999Z</time></trkpt><trkpt lat="44.7272068563982" lon="9.995773845429344"><ele>499.0</ele><time>2026-04-11T14:18:09.999Z</time></trkpt><trkpt lat="44.72718332950759" lon="9.995880548069174"><ele>499.0</ele><time>2026-04-11T14:18:11Z</time></trkpt><trkpt lat="44.72715454088132" lon="9.995978910322778"><ele>499.0</ele><time>2026-04-11T14:18:12Z</time></trkpt><trkpt lat="44.727121107176494" lon="9.996153574659854"><ele>500.50000000000006</ele><time>2026-04-11T14:18:14Z</time></trkpt><trkpt lat="44.72709205984268" lon="9.996244628150558"><ele>502.0</ele><time>2026-04-11T14:18:15Z</time></trkpt><trkpt lat="44.72704942791184" lon="9.996346680743319"><ele>503.5</ele><time>2026-04-11T14:18:16Z</time></trkpt><trkpt lat="44.727019673455814" lon="9.996439775931382"><ele>505.0</ele><time>2026-04-11T14:18:17Z</time></trkpt><trkpt lat="44.726986962712324" lon="9.996532725873513"><ele>506.50000000000006</ele><time>2026-04-11T14:18:18Z</time></trkpt><trkpt lat="44.726949502618076" lon="9.996615570178424"><ele>508.0</ele><time>2026-04-11T14:18:19Z</time></trkpt><trkpt lat="44.72689999566175" lon="9.9967024007884"><ele>506.50000000000006</ele><time>2026-04-11T14:18:20Z</time></trkpt><trkpt lat="44.72682829120123" lon="9.996786588195116"><ele>505.0</ele><time>2026-04-11T14:18:21Z</time></trkpt><trkpt lat="44.726774025897825" lon="9.99686134858225"><ele>503.5</ele><time>2026-04-11T14:18:22Z</time></trkpt><trkpt lat="44.726735182238905" lon="9.996949071976953"><ele>502.0</ele><time>2026-04-11T14:18:23Z</time></trkpt><trkpt lat="44.72670339733386" lon="9.997063265819545"><ele>500.50000000000006</ele><time>2026-04-11T14:18:24Z</time></trkpt><trkpt lat="44.72666224444084" lon="9.997166382220799"><ele>499.0</ele><time>2026-04-11T14:18:25Z</time></trkpt><trkpt lat="44.726602173802576" lon="9.997276444722848"><ele>499.0</ele><time>2026-04-11T14:18:26Z</time></trkpt><trkpt lat="44.726532743663505" lon="9.997364594181988"><ele>499.0</ele><time>2026-04-11T14:18:27Z</time></trkpt><trkpt lat="44.72645921145958" lon="9.997440891291388"><ele>499.0</ele><time>2026-04-11T14:18:28Z</time></trkpt><trkpt lat="44.72640732486838" lon="9.997499009916469"><ele>499.0</ele><time>2026-04-11T14:18:29Z</time></trkpt><trkpt lat="44.72632679167616" lon="9.997592318381216"><ele>499.0</ele><time>2026-04-11T14:18:31Z</time></trkpt><trkpt lat="44.726213984489895" lon="9.997699571155524"><ele>497.33333333333337</ele><time>2026-04-11T14:18:33Z</time></trkpt><trkpt lat="44.72615522197691" lon="9.99777737222707"><ele>495.6666666666667</ele><time>2026-04-11T14:18:34Z</time></trkpt><trkpt lat="44.72609796734013" lon="9.997857671224637"><ele>494.0</ele><time>2026-04-11T14:18:35Z</time></trkpt><trkpt lat="44.7260365145982" lon="9.99795099973571"><ele>492.33333333333337</ele><time>2026-04-11T14:18:36Z</time></trkpt><trkpt lat="44.725987501753096" lon="9.998025428135923"><ele>490.6666666666667</ele><time>2026-04-11T14:18:37Z</time></trkpt><trkpt lat="44.725931135196454" lon="9.998113591966817"><ele>489.0</ele><time>2026-04-11T14:18:38Z</time></trkpt><trkpt lat="44.725877737637305" lon="9.998200969668904"><ele>489.0</ele><time>2026-04-11T14:18:39Z</time></trkpt><trkpt lat="44.72582111723451" lon="9.998282975031739"><ele>489.0</ele><time>2026-04-11T14:18:40Z</time></trkpt><trkpt lat="44.725756300887305" lon="9.998377456662393"><ele>489.0</ele><time>2026-04-11T14:18:41Z</time></trkpt><trkpt lat="44.72567570221383" lon="9.998457710329264"><ele>489.0</ele><time>2026-04-11T14:18:42Z</time></trkpt><trkpt lat="44.72560403843442" lon="9.99852525079764"><ele>489.0</ele><time>2026-04-11T14:18:43Z</time></trkpt><trkpt lat="44.72554008470321" lon="9.99859629410703"><ele>489.0</ele><time>2026-04-11T14:18:44Z</time></trkpt><trkpt lat="44.72548073262878" lon="9.998669855996752"><ele>488.1666666666667</ele><time>2026-04-11T14:18:45Z</time></trkpt><trkpt lat="44.7254256189103" lon="9.998754452370099"><ele>487.33333333333337</ele><time>2026-04-11T14:18:46Z</time></trkpt><trkpt lat="44.7253705247392" lon="9.998840175193148"><ele>486.5</ele><time>2026-04-11T14:18:47Z</time></trkpt><trkpt lat="44.725324762644966" lon="9.998902895067106"><ele>485.6666666666667</ele><time>2026-04-11T14:18:48Z</time></trkpt><trkpt lat="44.72530724727906" lon="9.999064952528567"><ele>484.83333333333337</ele><time>2026-04-11T14:18:50Z</time></trkpt><trkpt lat="44.725323683073555" lon="9.999192571527288"><ele>484.0</ele><time>2026-04-11T14:18:51Z</time></trkpt><trkpt lat="44.725327174623004" lon="9.999313065987561"><ele>483.79999999999995</ele><time>2026-04-11T14:18:52Z</time></trkpt><trkpt lat="44.72530822898279" lon="9.99949570667186"><ele>483.59999999999997</ele><time>2026-04-11T14:18:54Z</time></trkpt><trkpt lat="44.72529560274501" lon="9.999596286549234"><ele>483.4</ele><time>2026-04-11T14:18:55Z</time></trkpt><trkpt lat="44.72527592090359" lon="9.999726899590922"><ele>483.2</ele><time>2026-04-11T14:18:56Z</time></trkpt><trkpt lat="44.72524342047749" lon="9.99985483037304"><ele>483.0</ele><time>2026-04-11T14:18:57Z</time></trkpt><trkpt lat="44.72522643830763" lon="9.999969882148884"><ele>483.0</ele><time>2026-04-11T14:18:58Z</time></trkpt><trkpt lat="44.72521287035315" lon="10.000072446019146"><ele>483.0</ele><time>2026-04-11T14:18:59Z</time></trkpt><trkpt lat="44.72521192066747" lon="10.000170367263069"><ele>483.0</ele><time>2026-04-11T14:19:00Z</time></trkpt><trkpt lat="44.725218244982266" lon="10.000276277504028"><ele>483.0</ele><time>2026-04-11T14:19:01Z</time></trkpt><trkpt lat="44.72524543753139" lon="10.00040233375583"><ele>483.0</ele><time>2026-04-11T14:19:02Z</time></trkpt><trkpt lat="44.72526912001794" lon="10.000556700752925"><ele>483.0</ele><time>2026-04-11T14:19:03Z</time></trkpt><trkpt lat="44.725284498771444" lon="10.000708169406282"><ele>482.3333333333333</ele><time>2026-04-11T14:19:04Z</time></trkpt><trkpt lat="44.725295260478326" lon="10.000835868111334"><ele>481.66666666666663</ele><time>2026-04-11T14:19:05Z</time></trkpt><trkpt lat="44.72531147094774" lon="10.000969471740628"><ele>481.0</ele><time>2026-04-11T14:19:06Z</time></trkpt><trkpt lat="44.72531716300163" lon="10.001079310958737"><ele>480.3333333333333</ele><time>2026-04-11T14:19:07Z</time></trkpt><trkpt lat="44.725300596492815" lon="10.0011811026985"><ele>479.66666666666663</ele><time>2026-04-11T14:19:08Z</time></trkpt><trkpt lat="44.72526157079793" lon="10.001260913501248"><ele>479.0</ele><time>2026-04-11T14:19:09Z</time></trkpt><trkpt lat="44.72521458452979" lon="10.001338899031758"><ele>478.99999999999994</ele><time>2026-04-11T14:19:10Z</time></trkpt><trkpt lat="44.72516464619217" lon="10.001467462330872"><ele>479.0</ele><time>2026-04-11T14:19:12Z</time></trkpt><trkpt lat="44.72513410016195" lon="10.001644764012498"><ele>479.0</ele><time>2026-04-11T14:19:14Z</time></trkpt><trkpt lat="44.72512579581133" lon="10.001736176283767"><ele>479.0</ele><time>2026-04-11T14:19:15Z</time></trkpt><trkpt lat="44.7251188590908" lon="10.001827864070913"><ele>478.99999999999994</ele><time>2026-04-11T14:19:16Z</time></trkpt><trkpt lat="44.72511804900764" lon="10.001923596783069"><ele>479.0</ele><time>2026-04-11T14:19:17Z</time></trkpt><trkpt lat="44.72511927229168" lon="10.0020633039973"><ele>478.0</ele><time>2026-04-11T14:19:18Z</time></trkpt><trkpt lat="44.72511465792271" lon="10.002209060812635"><ele>477.0</ele><time>2026-04-11T14:19:19Z</time></trkpt><trkpt lat="44.72509602072735" lon="10.00235428547816"><ele>476.0</ele><time>2026-04-11T14:19:20Z</time></trkpt><trkpt lat="44.72508101036562" lon="10.002475407506484"><ele>475.0</ele><time>2026-04-11T14:19:21Z</time></trkpt><trkpt lat="44.72508050673756" lon="10.002577892649802"><ele>474.0</ele><time>2026-04-11T14:19:22Z</time></trkpt><trkpt lat="44.72509245538483" lon="10.002722004123823"><ele>472.4</ele><time>2026-04-11T14:19:23Z</time></trkpt><trkpt lat="44.72510298401397" lon="10.002890936154559"><ele>470.79999999999995</ele><time>2026-04-11T14:19:24Z</time></trkpt><trkpt lat="44.72510321368969" lon="10.003049710118367"><ele>469.20000000000005</ele><time>2026-04-11T14:19:25Z</time></trkpt><trkpt lat="44.72510538471213" lon="10.003169399024479"><ele>467.6</ele><time>2026-04-11T14:19:26Z</time></trkpt><trkpt lat="44.72511184065686" lon="10.003280682177015"><ele>466.0</ele><time>2026-04-11T14:19:27Z</time></trkpt><trkpt lat="44.72512611458636" lon="10.003394098051869"><ele>466.0</ele><time>2026-04-11T14:19:28Z</time></trkpt><trkpt lat="44.72514224504332" lon="10.003555525178053"><ele>466.0</ele><time>2026-04-11T14:19:29Z</time></trkpt><trkpt lat="44.72516206879538" lon="10.003722508791778"><ele>466.0</ele><time>2026-04-11T14:19:30Z</time></trkpt><trkpt lat="44.725174916897515" lon="10.00383080670712"><ele>466.0</ele><time>2026-04-11T14:19:31Z</time></trkpt><trkpt lat="44.72517755673269" lon="10.003964944684503"><ele>466.0</ele><time>2026-04-11T14:19:32Z</time></trkpt><trkpt lat="44.72515802325125" lon="10.004074850745468"><ele>466.20000000000005</ele><time>2026-04-11T14:19:33Z</time></trkpt><trkpt lat="44.725149451773895" lon="10.004210191204473"><ele>466.40000000000003</ele><time>2026-04-11T14:19:34Z</time></trkpt><trkpt lat="44.72514133923359" lon="10.004355799630702"><ele>466.6</ele><time>2026-04-11T14:19:35Z</time></trkpt><trkpt lat="44.72512135747505" lon="10.00448581753975"><ele>466.8</ele><time>2026-04-11T14:19:36Z</time></trkpt><trkpt lat="44.72509792765645" lon="10.00459987112265"><ele>467.0</ele><time>2026-04-11T14:19:37Z</time></trkpt><trkpt lat="44.72507002314736" lon="10.00475158333603"><ele>467.0</ele><time>2026-04-11T14:19:38Z</time></trkpt><trkpt lat="44.725050880366425" lon="10.004902095224443"><ele>467.00000000000006</ele><time>2026-04-11T14:19:39Z</time></trkpt><trkpt lat="44.725033032669394" lon="10.005027260607948"><ele>467.00000000000006</ele><time>2026-04-11T14:19:40Z</time></trkpt><trkpt lat="44.72501386778366" lon="10.00516068526079"><ele>467.0</ele><time>2026-04-11T14:19:41Z</time></trkpt><trkpt lat="44.724988839842" lon="10.005297830887718"><ele>467.0</ele><time>2026-04-11T14:19:42Z</time></trkpt><trkpt lat="44.72498065385297" lon="10.0054109906071"><ele>467.49999999999994</ele><time>2026-04-11T14:19:43Z</time></trkpt><trkpt lat="44.72494276016789" lon="10.005515239092254"><ele>468.0</ele><time>2026-04-11T14:19:44Z</time></trkpt><trkpt lat="44.72489257326095" lon="10.005626414712593"><ele>468.5</ele><time>2026-04-11T14:19:45Z</time></trkpt><trkpt lat="44.724843091896894" lon="10.005702101104168"><ele>469.0</ele><time>2026-04-11T14:19:46Z</time></trkpt><trkpt lat="44.724803926313" lon="10.005797663312846"><ele>469.49999999999994</ele><time>2026-04-11T14:19:47Z</time></trkpt><trkpt lat="44.72477129748082" lon="10.005890866747825"><ele>470.0</ele><time>2026-04-11T14:19:48Z</time></trkpt><trkpt lat="44.72469935914745" lon="10.00597299217802"><ele>470.16666666666663</ele><time>2026-04-11T14:19:49Z</time></trkpt><trkpt lat="44.72462610837808" lon="10.006061696199149"><ele>470.3333333333333</ele><time>2026-04-11T14:19:50Z</time></trkpt><trkpt lat="44.72455414120331" lon="10.006169804233188"><ele>470.5</ele><time>2026-04-11T14:19:51Z</time></trkpt><trkpt lat="44.724482148987924" lon="10.006273588809899"><ele>470.66666666666663</ele><time>2026-04-11T14:19:52Z</time></trkpt><trkpt lat="44.72441938448406" lon="10.006327337727447"><ele>470.8333333333333</ele><time>2026-04-11T14:19:52.999Z</time></trkpt><trkpt lat="44.72436110620076" lon="10.006383750522525"><ele>471.0</ele><time>2026-04-11T14:19:53.999Z</time></trkpt><trkpt lat="44.72430189998082" lon="10.006455347181438"><ele>471.3333333333333</ele><time>2026-04-11T14:19:54.999Z</time></trkpt><trkpt lat="44.72424870393858" lon="10.00653637972142"><ele>471.66666666666663</ele><time>2026-04-11T14:19:55.999Z</time></trkpt><trkpt lat="44.7241864379893" lon="10.006633944663216"><ele>472.0</ele><time>2026-04-11T14:19:56.999Z</time></trkpt><trkpt lat="44.7241298165282" lon="10.00673359513472"><ele>472.3333333333333</ele><time>2026-04-11T14:19:57.999Z</time></trkpt><trkpt lat="44.72406774619426" lon="10.006837295499437"><ele>472.66666666666663</ele><time>2026-04-11T14:19:58.999Z</time></trkpt><trkpt lat="44.72400460920703" lon="10.006927136211269"><ele>473.0</ele><time>2026-04-11T14:19:59.999Z</time></trkpt><trkpt lat="44.72393925917831" lon="10.00702006286702"><ele>472.99999999999994</ele><time>2026-04-11T14:20:00.999Z</time></trkpt><trkpt lat="44.723878826406825" lon="10.007116994710723"><ele>473.0</ele><time>2026-04-11T14:20:01.999Z</time></trkpt><trkpt lat="44.72383297588335" lon="10.007205518017436"><ele>473.0</ele><time>2026-04-11T14:20:02.999Z</time></trkpt><trkpt lat="44.72378383773751" lon="10.007315455291286"><ele>473.0</ele><time>2026-04-11T14:20:03.999Z</time></trkpt><trkpt lat="44.723723850626925" lon="10.007411017870036"><ele>472.99999999999994</ele><time>2026-04-11T14:20:04.999Z</time></trkpt><trkpt lat="44.72366791493724" lon="10.007509123305507"><ele>473.0</ele><time>2026-04-11T14:20:05.999Z</time></trkpt><trkpt lat="44.72361138700891" lon="10.007608620715121"><ele>474.0</ele><time>2026-04-11T14:20:06.999Z</time></trkpt><trkpt lat="44.723560703101256" lon="10.007718130190012"><ele>474.99999999999994</ele><time>2026-04-11T14:20:07.999Z</time></trkpt><trkpt lat="44.723518972782806" lon="10.00782877823788"><ele>475.99999999999994</ele><time>2026-04-11T14:20:08.999Z</time></trkpt><trkpt lat="44.72348089501443" lon="10.00796178106434"><ele>477.0</ele><time>2026-04-11T14:20:09.999Z</time></trkpt><trkpt lat="44.723450174940936" lon="10.008111873070854"><ele>478.0</ele><time>2026-04-11T14:20:10.999Z</time></trkpt><trkpt lat="44.72341564742889" lon="10.008248733700821"><ele>478.0</ele><time>2026-04-11T14:20:11.999Z</time></trkpt><trkpt lat="44.72340016258836" lon="10.008386189927336"><ele>477.99999999999994</ele><time>2026-04-11T14:20:12.999Z</time></trkpt><trkpt lat="44.7233875491003" lon="10.008536326660215"><ele>477.99999999999994</ele><time>2026-04-11T14:20:13.999Z</time></trkpt><trkpt lat="44.723369072550064" lon="10.008678265926626"><ele>478.0</ele><time>2026-04-11T14:20:14.999Z</time></trkpt><trkpt lat="44.72333292250527" lon="10.008793728357533"><ele>478.0</ele><time>2026-04-11T14:20:15.999Z</time></trkpt><trkpt lat="44.7232991544631" lon="10.008905638978884"><ele>478.00000000000006</ele><time>2026-04-11T14:20:16.999Z</time></trkpt><trkpt lat="44.723265533936306" lon="10.00898816810912"><ele>478.0</ele><time>2026-04-11T14:20:18Z</time></trkpt><trkpt lat="44.723182795724256" lon="10.009088347336943"><ele>478.0</ele><time>2026-04-11T14:20:20Z</time></trkpt><trkpt lat="44.72314746640816" lon="10.009170712454262"><ele>478.0</ele><time>2026-04-11T14:20:21Z</time></trkpt><trkpt lat="44.72311712449507" lon="10.00927697135279"><ele>478.00000000000006</ele><time>2026-04-11T14:20:22Z</time></trkpt><trkpt lat="44.72309077417097" lon="10.009393317595224"><ele>478.0</ele><time>2026-04-11T14:20:23Z</time></trkpt><trkpt lat="44.72305376934781" lon="10.009520040230836"><ele>477.6666666666667</ele><time>2026-04-11T14:20:24Z</time></trkpt><trkpt lat="44.723012809007166" lon="10.009621734919884"><ele>477.33333333333337</ele><time>2026-04-11T14:20:25Z</time></trkpt><trkpt lat="44.722961150702695" lon="10.00973197204241"><ele>477.0</ele><time>2026-04-11T14:20:27Z</time></trkpt><trkpt lat="44.72294723179928" lon="10.009823493885989"><ele>476.66666666666663</ele><time>2026-04-11T14:20:28Z</time></trkpt><trkpt lat="44.72295261834726" lon="10.009926016234619"><ele>476.3333333333333</ele><time>2026-04-11T14:20:29Z</time></trkpt><trkpt lat="44.72295347003868" lon="10.010033711292134"><ele>476.0</ele><time>2026-04-11T14:20:30Z</time></trkpt><trkpt lat="44.72295231914408" lon="10.010150615207852"><ele>476.0</ele><time>2026-04-11T14:20:31Z</time></trkpt><trkpt lat="44.72293983253879" lon="10.010238463491298"><ele>476.0</ele><time>2026-04-11T14:20:32Z</time></trkpt><trkpt lat="44.72291952318628" lon="10.010329617285946"><ele>476.0</ele><time>2026-04-11T14:20:33Z</time></trkpt><trkpt lat="44.722886455979385" lon="10.010417242982689"><ele>476.0</ele><time>2026-04-11T14:20:34Z</time></trkpt><trkpt lat="44.72284120445642" lon="10.010502306108014"><ele>476.0</ele><time>2026-04-11T14:20:35Z</time></trkpt><trkpt lat="44.7228046035838" lon="10.010577667783888"><ele>476.0</ele><time>2026-04-11T14:20:36Z</time></trkpt><trkpt lat="44.722754977217456" lon="10.010682770830035"><ele>476.0</ele><time>2026-04-11T14:20:37Z</time></trkpt><trkpt lat="44.72269766892039" lon="10.010802598380517"><ele>477.99999999999994</ele><time>2026-04-11T14:20:38Z</time></trkpt><trkpt lat="44.72264064511007" lon="10.010932253153662"><ele>480.0</ele><time>2026-04-11T14:20:39Z</time></trkpt><trkpt lat="44.72260024832455" lon="10.01105513155591"><ele>482.0</ele><time>2026-04-11T14:20:40Z</time></trkpt><trkpt lat="44.722550836687816" lon="10.011143686539082"><ele>484.0</ele><time>2026-04-11T14:20:42Z</time></trkpt><trkpt lat="44.722490166740585" lon="10.011227963025847"><ele>485.99999999999994</ele><time>2026-04-11T14:21:00Z</time></trkpt><trkpt lat="44.72246279024448" lon="10.011328436930603"><ele>488.0</ele><time>2026-04-11T14:21:02Z</time></trkpt><trkpt lat="44.72245904735815" lon="10.011428294239005"><ele>487.99999999999994</ele><time>2026-04-11T14:21:06Z</time></trkpt><trkpt lat="44.72242383757475" lon="10.011502175979672"><ele>488.0</ele><time>2026-04-11T14:21:10Z</time></trkpt><trkpt lat="44.72239961348073" lon="10.011586853133725"><ele>488.0</ele><time>2026-04-11T14:21:12Z</time></trkpt><trkpt lat="44.72240313244779" lon="10.01175245678202"><ele>488.0</ele><time>2026-04-11T14:21:14Z</time></trkpt><trkpt lat="44.722391009700914" lon="10.011857622517754"><ele>487.99999999999994</ele><time>2026-04-11T14:21:15Z</time></trkpt><trkpt lat="44.72238259210516" lon="10.01196145171249"><ele>488.0</ele><time>2026-04-11T14:21:16Z</time></trkpt><trkpt lat="44.72238113532186" lon="10.012056671692088"><ele>488.49999999999994</ele><time>2026-04-11T14:21:17Z</time></trkpt><trkpt lat="44.72237957063183" lon="10.012227455417825"><ele>489.0</ele><time>2026-04-11T14:21:19Z</time></trkpt><trkpt lat="44.7223946546811" lon="10.012330188689557"><ele>489.5</ele><time>2026-04-11T14:21:20Z</time></trkpt><trkpt lat="44.72240871923743" lon="10.012431978861429"><ele>490.0</ele><time>2026-04-11T14:21:21Z</time></trkpt><trkpt lat="44.722415287790334" lon="10.01257934055732"><ele>490.49999999999994</ele><time>2026-04-11T14:21:23Z</time></trkpt><trkpt lat="44.722392086459585" lon="10.012662613504837"><ele>491.0</ele><time>2026-04-11T14:21:47Z</time></trkpt><trkpt lat="44.722370955417205" lon="10.012772993488255"><ele>492.0</ele><time>2026-04-11T14:21:49Z</time></trkpt><trkpt lat="44.72233241648654" lon="10.012892369032366"><ele>493.0</ele><time>2026-04-11T14:21:51Z</time></trkpt><trkpt lat="44.7222487477653" lon="10.013005512207148"><ele>494.0</ele><time>2026-04-11T14:21:53Z</time></trkpt><trkpt lat="44.72218487339677" lon="10.013070126729726"><ele>495.0</ele><time>2026-04-11T14:21:55Z</time></trkpt><trkpt lat="44.72209555999838" lon="10.01310952478574"><ele>496.0</ele><time>2026-04-11T14:21:57Z</time></trkpt><trkpt lat="44.721992376634354" lon="10.013127076738568"><ele>496.00000000000006</ele><time>2026-04-11T14:21:58.999Z</time></trkpt><trkpt lat="44.721908587556456" lon="10.013155251674451"><ele>496.0</ele><time>2026-04-11T14:22:00.999Z</time></trkpt><trkpt lat="44.721805324369726" lon="10.013139118654582"><ele>496.0</ele><time>2026-04-11T14:22:02.999Z</time></trkpt><trkpt lat="44.721736062122865" lon="10.013149188880059"><ele>496.0</ele><time>2026-04-11T14:22:03.999Z</time></trkpt><trkpt lat="44.72167133355028" lon="10.01318122973934"><ele>496.00000000000006</ele><time>2026-04-11T14:22:04.999Z</time></trkpt><trkpt lat="44.72160378577732" lon="10.013228036200099"><ele>496.0</ele><time>2026-04-11T14:22:05.999Z</time></trkpt><trkpt lat="44.72150037769746" lon="10.013300571240965"><ele>496.1666666666667</ele><time>2026-04-11T14:22:07.999Z</time></trkpt><trkpt lat="44.72138613191312" lon="10.013359199303281"><ele>496.33333333333337</ele><time>2026-04-11T14:22:09.999Z</time></trkpt><trkpt lat="44.72129421892861" lon="10.013358976282955"><ele>496.5</ele><time>2026-04-11T14:22:10.999Z</time></trkpt><trkpt lat="44.721207395027875" lon="10.013361770775107"><ele>496.66666666666663</ele><time>2026-04-11T14:22:11.999Z</time></trkpt><trkpt lat="44.72113953925606" lon="10.013396910596377"><ele>496.8333333333333</ele><time>2026-04-11T14:22:12.999Z</time></trkpt><trkpt lat="44.721082261788986" lon="10.013454773804817"><ele>497.0</ele><time>2026-04-11T14:22:13.999Z</time></trkpt><trkpt lat="44.7209878750617" lon="10.013577336509286"><ele>495.8333333333333</ele><time>2026-04-11T14:22:15.999Z</time></trkpt><trkpt lat="44.72093810273177" lon="10.013690678726169"><ele>494.66666666666663</ele><time>2026-04-11T14:22:17.999Z</time></trkpt><trkpt lat="44.72090208362593" lon="10.013771018365615"><ele>493.5</ele><time>2026-04-11T14:22:18.999Z</time></trkpt><trkpt lat="44.72085971794223" lon="10.01383671097831"><ele>492.33333333333337</ele><time>2026-04-11T14:22:19.999Z</time></trkpt><trkpt lat="44.72079734406252" lon="10.013951298512053"><ele>491.1666666666667</ele><time>2026-04-11T14:22:22Z</time></trkpt><trkpt lat="44.720716362966655" lon="10.014077954832223"><ele>490.0</ele><time>2026-04-11T14:22:24Z</time></trkpt><trkpt lat="44.7206717570663" lon="10.014154905070631"><ele>490.0</ele><time>2026-04-11T14:22:25Z</time></trkpt><trkpt lat="44.7206148877598" lon="10.014230585386214"><ele>490.0</ele><time>2026-04-11T14:22:26Z</time></trkpt><trkpt lat="44.72055909482502" lon="10.014320963095132"><ele>490.0</ele><time>2026-04-11T14:22:27Z</time></trkpt><trkpt lat="44.720498789178926" lon="10.014449120316478"><ele>490.0</ele><time>2026-04-11T14:22:28Z</time></trkpt><trkpt lat="44.72042105860683" lon="10.014563384014775"><ele>490.0</ele><time>2026-04-11T14:22:29Z</time></trkpt><trkpt lat="44.720353727805794" lon="10.014657671071138"><ele>490.0</ele><time>2026-04-11T14:22:30Z</time></trkpt><trkpt lat="44.72030072465409" lon="10.014735161051997"><ele>490.0</ele><time>2026-04-11T14:22:31Z</time></trkpt><trkpt lat="44.72025170287983" lon="10.014798543374553"><ele>490.0</ele><time>2026-04-11T14:22:32Z</time></trkpt><trkpt lat="44.72014999144403" lon="10.01487930601538"><ele>490.0</ele><time>2026-04-11T14:22:34Z</time></trkpt><trkpt lat="44.72005119771871" lon="10.014957464101066"><ele>490.0</ele><time>2026-04-11T14:22:36Z</time></trkpt><trkpt lat="44.71995529455222" lon="10.015048877268383"><ele>489.00000000000006</ele><time>2026-04-11T14:22:38Z</time></trkpt><trkpt lat="44.71986943599736" lon="10.01512217588919"><ele>488.0</ele><time>2026-04-11T14:22:40Z</time></trkpt><trkpt lat="44.719810055869914" lon="10.015228517481146"><ele>487.0</ele><time>2026-04-11T14:22:42Z</time></trkpt><trkpt lat="44.7197790102406" lon="10.015312163155293"><ele>486.0</ele><time>2026-04-11T14:22:44Z</time></trkpt><trkpt lat="44.7197401062713" lon="10.01540536503948"><ele>485.00000000000006</ele><time>2026-04-11T14:22:46Z</time></trkpt><trkpt lat="44.71969779733336" lon="10.015490004645024"><ele>484.0</ele><time>2026-04-11T14:22:49Z</time></trkpt><trkpt lat="44.719644701325194" lon="10.015580152810104"><ele>484.0</ele><time>2026-04-11T14:22:51Z</time></trkpt><trkpt lat="44.71958325317501" lon="10.015662897732193"><ele>484.0</ele><time>2026-04-11T14:22:53Z</time></trkpt><trkpt lat="44.719512149039666" lon="10.015732912787906"><ele>484.0</ele><time>2026-04-11T14:22:55Z</time></trkpt><trkpt lat="44.719430427670055" lon="10.015845306800422"><ele>484.0</ele><time>2026-04-11T14:22:57Z</time></trkpt><trkpt lat="44.7193804515439" lon="10.01590247015033"><ele>484.0</ele><time>2026-04-11T14:22:58Z</time></trkpt><trkpt lat="44.719285256795324" lon="10.016011845843247"><ele>483.6</ele><time>2026-04-11T14:23:00Z</time></trkpt><trkpt lat="44.719216089228446" lon="10.016098497885114"><ele>483.2</ele><time>2026-04-11T14:23:01Z</time></trkpt><trkpt lat="44.719133962967526" lon="10.016188813480875"><ele>482.80000000000007</ele><time>2026-04-11T14:23:02Z</time></trkpt><trkpt lat="44.71906628973781" lon="10.016282449869658"><ele>482.40000000000003</ele><time>2026-04-11T14:23:03Z</time></trkpt><trkpt lat="44.71898738777928" lon="10.01636205800692"><ele>482.0</ele><time>2026-04-11T14:23:04Z</time></trkpt><trkpt lat="44.71889269925619" lon="10.016430726475763"><ele>482.0</ele><time>2026-04-11T14:23:05Z</time></trkpt><trkpt lat="44.718812887156965" lon="10.016511815687966"><ele>482.00000000000006</ele><time>2026-04-11T14:23:06Z</time></trkpt><trkpt lat="44.71873068492656" lon="10.016613440011238"><ele>482.00000000000006</ele><time>2026-04-11T14:23:07Z</time></trkpt><trkpt lat="44.718679793370825" lon="10.016691948836524"><ele>482.0</ele><time>2026-04-11T14:23:08Z</time></trkpt><trkpt lat="44.71856572677411" lon="10.016787409002895"><ele>482.0</ele><time>2026-04-11T14:23:10Z</time></trkpt><trkpt lat="44.718490892533865" lon="10.01682395583699"><ele>482.8</ele><time>2026-04-11T14:23:11Z</time></trkpt><trkpt lat="44.71840430547232" lon="10.016880535546473"><ele>483.6</ele><time>2026-04-11T14:23:13Z</time></trkpt><trkpt lat="44.718319886827565" lon="10.0169340133103"><ele>484.40000000000003</ele><time>2026-04-11T14:23:16Z</time></trkpt><trkpt lat="44.718273538014905" lon="10.01705893466963"><ele>485.20000000000005</ele><time>2026-04-11T14:23:18Z</time></trkpt><trkpt lat="44.718236423439855" lon="10.01713138510202"><ele>486.0</ele><time>2026-04-11T14:23:19Z</time></trkpt><trkpt lat="44.718171273593825" lon="10.017239297286332"><ele>486.0</ele><time>2026-04-11T14:23:21Z</time></trkpt><trkpt lat="44.71807656112595" lon="10.017352119621986"><ele>486.0</ele><time>2026-04-11T14:23:23Z</time></trkpt><trkpt lat="44.71800594631996" lon="10.0174487635803"><ele>486.0</ele><time>2026-04-11T14:23:25Z</time></trkpt><trkpt lat="44.717906365721745" lon="10.017571632022245"><ele>486.0</ele><time>2026-04-11T14:23:27Z</time></trkpt><trkpt lat="44.71785012136711" lon="10.017642425143457"><ele>486.0</ele><time>2026-04-11T14:23:28Z</time></trkpt><trkpt lat="44.71779706921507" lon="10.01772176990726"><ele>486.6</ele><time>2026-04-11T14:23:29Z</time></trkpt><trkpt lat="44.717755546823305" lon="10.017795132593518"><ele>487.20000000000005</ele><time>2026-04-11T14:23:30Z</time></trkpt><trkpt lat="44.71764815007514" lon="10.017845100206781"><ele>487.79999999999995</ele><time>2026-04-11T14:23:32Z</time></trkpt><trkpt lat="44.71755265395763" lon="10.01789944224552"><ele>488.4</ele><time>2026-04-11T14:23:34Z</time></trkpt><trkpt lat="44.717510244555136" lon="10.017995764775423"><ele>489.0</ele><time>2026-04-11T14:23:36Z</time></trkpt><trkpt lat="44.717450410742615" lon="10.018128797481177"><ele>489.2</ele><time>2026-04-11T14:23:38Z</time></trkpt><trkpt lat="44.717388828068586" lon="10.018281739568984"><ele>489.4</ele><time>2026-04-11T14:23:40Z</time></trkpt><trkpt lat="44.71734153940702" lon="10.018429176328224"><ele>489.6</ele><time>2026-04-11T14:23:42.001Z</time></trkpt><trkpt lat="44.7172907834888" lon="10.018583488640813"><ele>489.8</ele><time>2026-04-11T14:23:44.001Z</time></trkpt><trkpt lat="44.717247813005265" lon="10.01865163028627"><ele>490.0</ele><time>2026-04-11T14:23:45.001Z</time></trkpt><trkpt lat="44.717176314381234" lon="10.018764532211692"><ele>490.8</ele><time>2026-04-11T14:23:47.001Z</time></trkpt><trkpt lat="44.717111261510816" lon="10.018834767516884"><ele>491.6</ele><time>2026-04-11T14:23:49.001Z</time></trkpt><trkpt lat="44.71702235069788" lon="10.018864193286523"><ele>492.4</ele><time>2026-04-11T14:23:51.001Z</time></trkpt><trkpt lat="44.71690594995446" lon="10.018885463142526"><ele>493.2</ele><time>2026-04-11T14:23:53.001Z</time></trkpt><trkpt lat="44.71681218506681" lon="10.018878459859721"><ele>494.0</ele><time>2026-04-11T14:23:54.001Z</time></trkpt><trkpt lat="44.716720246812955" lon="10.018866583174521"><ele>494.0</ele><time>2026-04-11T14:23:55.001Z</time></trkpt><trkpt lat="44.71665005809203" lon="10.018874671010593"><ele>494.0</ele><time>2026-04-11T14:23:56.001Z</time></trkpt><trkpt lat="44.71657811402766" lon="10.018886642731191"><ele>494.0</ele><time>2026-04-11T14:23:57.001Z</time></trkpt><trkpt lat="44.7164958263825" lon="10.018892032487823"><ele>494.0</ele><time>2026-04-11T14:23:58.001Z</time></trkpt><trkpt lat="44.71642116588566" lon="10.01889619925124"><ele>494.0</ele><time>2026-04-11T14:23:59.001Z</time></trkpt><trkpt lat="44.71634641438344" lon="10.018901906769802"><ele>494.0</ele><time>2026-04-11T14:24:00.001Z</time></trkpt><trkpt lat="44.716274113308835" lon="10.018923678952316"><ele>494.0</ele><time>2026-04-11T14:24:01.001Z</time></trkpt><trkpt lat="44.71619810335062" lon="10.018970038464483"><ele>493.99999999999994</ele><time>2026-04-11T14:24:02.001Z</time></trkpt><trkpt lat="44.7161133197127" lon="10.019012930233917"><ele>494.0</ele><time>2026-04-11T14:24:03.001Z</time></trkpt><trkpt lat="44.71603019825612" lon="10.019031824279992"><ele>494.0</ele><time>2026-04-11T14:24:04.001Z</time></trkpt><trkpt lat="44.71596440303776" lon="10.019036902104581"><ele>494.0</ele><time>2026-04-11T14:24:04.999Z</time></trkpt><trkpt lat="44.71587152706821" lon="10.019018424129538"><ele>493.99999999999994</ele><time>2026-04-11T14:24:06.999Z</time></trkpt><trkpt lat="44.71578712691191" lon="10.019030998011502"><ele>494.0</ele><time>2026-04-11T14:24:08.999Z</time></trkpt><trkpt lat="44.71571856723412" lon="10.019065335568797"><ele>493.16666666666663</ele><time>2026-04-11T14:24:12.999Z</time></trkpt><trkpt lat="44.71566850351675" lon="10.01912370732541"><ele>492.3333333333333</ele><time>2026-04-11T14:24:15.999Z</time></trkpt><trkpt lat="44.715626423787555" lon="10.01920020106902"><ele>491.5</ele><time>2026-04-11T14:24:18.999Z</time></trkpt><trkpt lat="44.715558169351034" lon="10.019228770746027"><ele>490.66666666666663</ele><time>2026-04-11T14:24:20.999Z</time></trkpt><trkpt lat="44.71544859653693" lon="10.019303347900074"><ele>489.8333333333333</ele><time>2026-04-11T14:24:22.999Z</time></trkpt><trkpt lat="44.71539260314014" lon="10.019347840253713"><ele>489.0</ele><time>2026-04-11T14:24:24.999Z</time></trkpt><trkpt lat="44.71532599450997" lon="10.019334992286716"><ele>491.4</ele><time>2026-04-11T14:24:26.999Z</time></trkpt><trkpt lat="44.71520387286345" lon="10.019397015935061"><ele>493.79999999999995</ele><time>2026-04-11T14:24:29Z</time></trkpt><trkpt lat="44.71512300203992" lon="10.01944482344449"><ele>496.20000000000005</ele><time>2026-04-11T14:24:30Z</time></trkpt><trkpt lat="44.71504798118201" lon="10.019451847754326"><ele>498.6</ele><time>2026-04-11T14:24:31Z</time></trkpt><trkpt lat="44.714967076707694" lon="10.019427187226146"><ele>501.0</ele><time>2026-04-11T14:24:32Z</time></trkpt><trkpt lat="44.71488002896841" lon="10.01940394912968"><ele>501.0</ele><time>2026-04-11T14:24:33Z</time></trkpt><trkpt lat="44.714802509638254" lon="10.019398973047421"><ele>501.0</ele><time>2026-04-11T14:24:34Z</time></trkpt><trkpt lat="44.714723302742726" lon="10.01942378126798"><ele>501.0</ele><time>2026-04-11T14:24:35Z</time></trkpt><trkpt lat="44.714644495872676" lon="10.019441042387244"><ele>501.0</ele><time>2026-04-11T14:24:36Z</time></trkpt><trkpt lat="44.714536705874366" lon="10.019430203230096"><ele>501.0</ele><time>2026-04-11T14:24:38Z</time></trkpt><trkpt lat="44.714411149932275" lon="10.019423727095269"><ele>502.42857142857144</ele><time>2026-04-11T14:24:40Z</time></trkpt><trkpt lat="44.714343459124684" lon="10.019430332090433"><ele>503.85714285714283</ele><time>2026-04-11T14:24:41Z</time></trkpt><trkpt lat="44.71426674930128" lon="10.019435261421947"><ele>505.2857142857143</ele><time>2026-04-11T14:24:42Z</time></trkpt><trkpt lat="44.71420158788071" lon="10.01944584853731"><ele>506.7142857142857</ele><time>2026-04-11T14:24:43Z</time></trkpt><trkpt lat="44.714137735820806" lon="10.019446149788257"><ele>508.1428571428571</ele><time>2026-04-11T14:24:44Z</time></trkpt><trkpt lat="44.714069531288615" lon="10.019443699268438"><ele>509.57142857142856</ele><time>2026-04-11T14:24:45Z</time></trkpt><trkpt lat="44.7139910725043" lon="10.019452513703602"><ele>511.0</ele><time>2026-04-11T14:24:46Z</time></trkpt><trkpt lat="44.713914499595475" lon="10.019454367157277"><ele>511.00000000000006</ele><time>2026-04-11T14:24:47Z</time></trkpt><trkpt lat="44.713850629887574" lon="10.019458035111924"><ele>511.0</ele><time>2026-04-11T14:24:48Z</time></trkpt><trkpt lat="44.71377828300967" lon="10.019468945044006"><ele>511.0</ele><time>2026-04-11T14:24:49Z</time></trkpt><trkpt lat="44.713713854697566" lon="10.019462592736648"><ele>511.0</ele><time>2026-04-11T14:24:50Z</time></trkpt><trkpt lat="44.71358139019896" lon="10.019471175776818"><ele>511.00000000000006</ele><time>2026-04-11T14:24:52Z</time></trkpt><trkpt lat="44.713504321734405" lon="10.019481342639148"><ele>511.0</ele><time>2026-04-11T14:24:53Z</time></trkpt><trkpt lat="44.713427244092216" lon="10.019485665680236"><ele>514.1428571428571</ele><time>2026-04-11T14:24:54Z</time></trkpt><trkpt lat="44.713363969862236" lon="10.019487338645726"><ele>517.2857142857142</ele><time>2026-04-11T14:24:55Z</time></trkpt><trkpt lat="44.713286864039475" lon="10.019509450516106"><ele>520.4285714285714</ele><time>2026-04-11T14:24:56Z</time></trkpt><trkpt lat="44.713206552166774" lon="10.019522410373638"><ele>523.5714285714286</ele><time>2026-04-11T14:24:57Z</time></trkpt><trkpt lat="44.713134738116004" lon="10.019528403374865"><ele>526.7142857142857</ele><time>2026-04-11T14:24:58Z</time></trkpt><trkpt lat="44.71306782353854" lon="10.019536468791207"><ele>529.8571428571429</ele><time>2026-04-11T14:24:59Z</time></trkpt><trkpt lat="44.712999478277155" lon="10.01953402338146"><ele>533.0</ele><time>2026-04-11T14:25:00Z</time></trkpt><trkpt lat="44.71287526799304" lon="10.019554121101338"><ele>533.0</ele><time>2026-04-11T14:25:02Z</time></trkpt><trkpt lat="44.71281321300197" lon="10.019528682512332"><ele>533.0</ele><time>2026-04-11T14:25:03Z</time></trkpt><trkpt lat="44.71273887802477" lon="10.019454435788614"><ele>533.0</ele><time>2026-04-11T14:25:05Z</time></trkpt><trkpt lat="44.712683462055345" lon="10.01936271566129"><ele>533.0</ele><time>2026-04-11T14:25:07Z</time></trkpt><trkpt lat="44.71261931191734" lon="10.019327633469981"><ele>533.0</ele><time>2026-04-11T14:25:17Z</time></trkpt><trkpt lat="44.71250631772323" lon="10.019298759546812"><ele>533.0</ele><time>2026-04-11T14:25:19Z</time></trkpt><trkpt lat="44.71243591133855" lon="10.019243856036299"><ele>534.1428571428571</ele><time>2026-04-11T14:25:22Z</time></trkpt><trkpt lat="44.71236177788743" lon="10.019278198742414"><ele>535.2857142857142</ele><time>2026-04-11T14:26:30.999Z</time></trkpt><trkpt lat="44.71232417663432" lon="10.019362463156858"><ele>536.4285714285714</ele><time>2026-04-11T14:26:32.999Z</time></trkpt><trkpt lat="44.712283308638234" lon="10.019445255327444"><ele>537.5714285714286</ele><time>2026-04-11T14:26:34.999Z</time></trkpt><trkpt lat="44.712244708125006" lon="10.019519088983916"><ele>538.7142857142858</ele><time>2026-04-11T14:26:37Z</time></trkpt><trkpt lat="44.712194308560996" lon="10.019630414740758"><ele>539.8571428571429</ele><time>2026-04-11T14:26:39Z</time></trkpt><trkpt lat="44.712157104011105" lon="10.019703635591311"><ele>541.0</ele><time>2026-04-11T14:26:40Z</time></trkpt><trkpt lat="44.71208818280154" lon="10.019795514270827"><ele>541.0</ele><time>2026-04-11T14:26:42Z</time></trkpt><trkpt lat="44.71202816339657" lon="10.019910026508034"><ele>541.0</ele><time>2026-04-11T14:26:44Z</time></trkpt><trkpt lat="44.71198389510054" lon="10.01999455534321"><ele>541.0</ele><time>2026-04-11T14:26:47Z</time></trkpt><trkpt lat="44.71192905891145" lon="10.020099198728406"><ele>541.0</ele><time>2026-04-11T14:26:50Z</time></trkpt><trkpt lat="44.71193400783549" lon="10.02021450269637"><ele>541.0</ele><time>2026-04-11T14:26:53Z</time></trkpt><trkpt lat="44.71192943275118" lon="10.020319513994366"><ele>541.0</ele><time>2026-04-11T14:26:55Z</time></trkpt><trkpt lat="44.711861446108166" lon="10.020388061480292"><ele>536.5</ele><time>2026-04-11T14:26:57Z</time></trkpt><trkpt lat="44.711765547610966" lon="10.020461076544747"><ele>532.0</ele><time>2026-04-11T14:26:59Z</time></trkpt><trkpt lat="44.7117417045996" lon="10.020544351430596"><ele>527.5</ele><time>2026-04-11T14:27:01Z</time></trkpt><trkpt lat="44.71166649459145" lon="10.020670718278899"><ele>523.0</ele><time>2026-04-11T14:27:03Z</time></trkpt><trkpt lat="44.71160687869469" lon="10.02071321622127"><ele>518.5</ele><time>2026-04-11T14:27:04Z</time></trkpt><trkpt lat="44.711549734737495" lon="10.020754691703537"><ele>514.0</ele><time>2026-04-11T14:27:05Z</time></trkpt><trkpt lat="44.71148998921924" lon="10.0207945707173"><ele>513.1666666666667</ele><time>2026-04-11T14:27:06Z</time></trkpt><trkpt lat="44.71143086062823" lon="10.020841463743237"><ele>512.3333333333334</ele><time>2026-04-11T14:27:07Z</time></trkpt><trkpt lat="44.71137808144505" lon="10.02094044299185"><ele>511.5</ele><time>2026-04-11T14:27:09Z</time></trkpt><trkpt lat="44.71134100562112" lon="10.021036177954095"><ele>510.66666666666663</ele><time>2026-04-11T14:27:11Z</time></trkpt><trkpt lat="44.711276496088175" lon="10.02110326922762"><ele>509.8333333333333</ele><time>2026-04-11T14:27:13Z</time></trkpt><trkpt lat="44.71122084165714" lon="10.021174053744124"><ele>509.0</ele><time>2026-04-11T14:27:15Z</time></trkpt><trkpt lat="44.711184990721456" lon="10.021280895432835"><ele>508.99999999999994</ele><time>2026-04-11T14:27:17Z</time></trkpt><trkpt lat="44.711157789975424" lon="10.021416050279171"><ele>509.0</ele><time>2026-04-11T14:27:19Z</time></trkpt><trkpt lat="44.71112647750163" lon="10.021536399821494"><ele>509.0</ele><time>2026-04-11T14:27:21Z</time></trkpt><trkpt lat="44.71107135333369" lon="10.021636360427221"><ele>509.0</ele><time>2026-04-11T14:27:23Z</time></trkpt><trkpt lat="44.71100612834457" lon="10.02165808304981"><ele>508.99999999999994</ele><time>2026-04-11T14:27:25Z</time></trkpt><trkpt lat="44.710921655456566" lon="10.021696457386579"><ele>509.0</ele><time>2026-04-11T14:27:27Z</time></trkpt><trkpt lat="44.71085344924252" lon="10.021766834649092"><ele>507.0</ele><time>2026-04-11T14:27:29Z</time></trkpt><trkpt lat="44.71082592020883" lon="10.021885422872495"><ele>505.0</ele><time>2026-04-11T14:27:31.001Z</time></trkpt><trkpt lat="44.710807425701184" lon="10.02197560815327"><ele>503.0</ele><time>2026-04-11T14:27:32.001Z</time></trkpt><trkpt lat="44.71075067106623" lon="10.02211159441022"><ele>501.0</ele><time>2026-04-11T14:27:34.001Z</time></trkpt><trkpt lat="44.710694865686804" lon="10.022214605862585"><ele>499.0</ele><time>2026-04-11T14:27:36.001Z</time></trkpt><trkpt lat="44.71063356548923" lon="10.022369784884605"><ele>498.1666666666667</ele><time>2026-04-11T14:27:38.001Z</time></trkpt><trkpt lat="44.71061621995438" lon="10.022534673294158"><ele>497.33333333333337</ele><time>2026-04-11T14:27:40.001Z</time></trkpt><trkpt lat="44.71061301111381" lon="10.022672342726805"><ele>496.5</ele><time>2026-04-11T14:27:42.001Z</time></trkpt><trkpt lat="44.71059372272062" lon="10.02276191488314"><ele>495.66666666666663</ele><time>2026-04-11T14:27:47.001Z</time></trkpt><trkpt lat="44.71056795568872" lon="10.022843920471354"><ele>494.8333333333333</ele><time>2026-04-11T14:27:54.001Z</time></trkpt><trkpt lat="44.710561723439255" lon="10.022972083202053"><ele>494.0</ele><time>2026-04-11T14:28:16.001Z</time></trkpt><trkpt lat="44.71059785627673" lon="10.023048612975602"><ele>494.0</ele><time>2026-04-11T14:28:23.999Z</time></trkpt><trkpt lat="44.71064038434002" lon="10.023116819211252"><ele>494.0</ele><time>2026-04-11T14:28:40Z</time></trkpt><trkpt lat="44.71065412914803" lon="10.023206675554183"><ele>494.0</ele><time>2026-04-11T14:28:47Z</time></trkpt><trkpt lat="44.710667330859096" lon="10.023306009357924"><ele>494.0</ele><time>2026-04-11T14:29:01Z</time></trkpt><trkpt lat="44.71066457891296" lon="10.023400175095603"><ele>494.0</ele><time>2026-04-11T14:29:07Z</time></trkpt><trkpt lat="44.71070065531958" lon="10.02350105511508"><ele>494.0</ele><time>2026-04-11T14:29:11Z</time></trkpt><trkpt lat="44.71069421079595" lon="10.023606680623145"><ele>494.0</ele><time>2026-04-11T14:29:15Z</time></trkpt><trkpt lat="44.7106820063838" lon="10.023701780977412"><ele>492.14285714285717</ele><time>2026-04-11T14:29:17.001Z</time></trkpt><trkpt lat="44.710649679409215" lon="10.023781954193748"><ele>490.2857142857142</ele><time>2026-04-11T14:29:20.001Z</time></trkpt><trkpt lat="44.71061299724377" lon="10.023860177572745"><ele>488.4285714285714</ele><time>2026-04-11T14:29:23.001Z</time></trkpt><trkpt lat="44.710573462230386" lon="10.02395030497694"><ele>486.57142857142856</ele><time>2026-04-11T14:29:26.001Z</time></trkpt><trkpt lat="44.710521078084135" lon="10.024035375333936"><ele>484.71428571428567</ele><time>2026-04-11T14:29:28.001Z</time></trkpt><trkpt lat="44.71047835697245" lon="10.024110300122803"><ele>482.8571428571428</ele><time>2026-04-11T14:29:29.001Z</time></trkpt><trkpt lat="44.710459522490254" lon="10.024215723928835"><ele>480.99999999999994</ele><time>2026-04-11T14:29:31.001Z</time></trkpt><trkpt lat="44.71042950426632" lon="10.024300771313824"><ele>478.33333333333337</ele><time>2026-04-11T14:29:33.001Z</time></trkpt><trkpt lat="44.710425393154715" lon="10.024403893174146"><ele>475.6666666666667</ele><time>2026-04-11T14:29:35.001Z</time></trkpt><trkpt lat="44.71046026102692" lon="10.024520759897959"><ele>473.0</ele><time>2026-04-11T14:29:37.001Z</time></trkpt><trkpt lat="44.7104744325403" lon="10.024608501184968"><ele>470.33333333333337</ele><time>2026-04-11T14:29:39.001Z</time></trkpt><trkpt lat="44.71047472035495" lon="10.02470399318159"><ele>467.6666666666667</ele><time>2026-04-11T14:29:41.001Z</time></trkpt><trkpt lat="44.710449962614256" lon="10.024816803951506"><ele>465.0</ele><time>2026-04-11T14:29:43.001Z</time></trkpt><trkpt lat="44.71044072610136" lon="10.024940204551536"><ele>463.0</ele><time>2026-04-11T14:29:45.001Z</time></trkpt><trkpt lat="44.710434799048706" lon="10.025066647242195"><ele>461.0</ele><time>2026-04-11T14:29:47.001Z</time></trkpt><trkpt lat="44.71042441300144" lon="10.02518070671646"><ele>459.0</ele><time>2026-04-11T14:29:49.001Z</time></trkpt><trkpt lat="44.7104063476035" lon="10.02528460963865"><ele>457.0</ele><time>2026-04-11T14:29:51.001Z</time></trkpt><trkpt lat="44.710391387719255" lon="10.025379144915831"><ele>455.0</ele><time>2026-04-11T14:29:53.001Z</time></trkpt><trkpt lat="44.7103402402914" lon="10.025494067728312"><ele>453.0</ele><time>2026-04-11T14:29:55.001Z</time></trkpt><trkpt lat="44.71030833306429" lon="10.025592413113785"><ele>453.0</ele><time>2026-04-11T14:29:57.001Z</time></trkpt><trkpt lat="44.710274471109685" lon="10.02572702701436"><ele>452.99999999999994</ele><time>2026-04-11T14:29:59.001Z</time></trkpt><trkpt lat="44.7102647322129" lon="10.025876936692622"><ele>452.99999999999994</ele><time>2026-04-11T14:30:01.001Z</time></trkpt><trkpt lat="44.71027376300311" lon="10.025966213001752"><ele>453.0</ele><time>2026-04-11T14:30:02.001Z</time></trkpt><trkpt lat="44.710290737934805" lon="10.026108316560421"><ele>453.0</ele><time>2026-04-11T14:30:04.001Z</time></trkpt><trkpt lat="44.710304546913726" lon="10.026244253026647"><ele>451.6666666666667</ele><time>2026-04-11T14:30:06.001Z</time></trkpt><trkpt lat="44.71031514326562" lon="10.026358373841877"><ele>450.33333333333337</ele><time>2026-04-11T14:30:08.001Z</time></trkpt><trkpt lat="44.71032046512279" lon="10.026471257314974"><ele>449.0</ele><time>2026-04-11T14:30:10.001Z</time></trkpt><trkpt lat="44.71034726876523" lon="10.026648762904745"><ele>447.6666666666667</ele><time>2026-04-11T14:30:12.002Z</time></trkpt><trkpt lat="44.710388906665614" lon="10.026742531321018"><ele>446.33333333333337</ele><time>2026-04-11T14:30:14.002Z</time></trkpt><trkpt lat="44.71042830713235" lon="10.02682710833884"><ele>445.0</ele><time>2026-04-11T14:30:17.002Z</time></trkpt><trkpt lat="44.710485813002336" lon="10.026980805043362"><ele>445.0</ele><time>2026-04-11T14:30:19.002Z</time></trkpt><trkpt lat="44.71050872991478" lon="10.027079009559413"><ele>445.0</ele><time>2026-04-11T14:30:20.002Z</time></trkpt><trkpt lat="44.71053632486814" lon="10.02719573408241"><ele>445.0</ele><time>2026-04-11T14:30:21.002Z</time></trkpt><trkpt lat="44.71055647288319" lon="10.027361712604417"><ele>445.0</ele><time>2026-04-11T14:30:22.999Z</time></trkpt><trkpt lat="44.71053185130447" lon="10.027540905090817"><ele>445.0</ele><time>2026-04-11T14:30:24.999Z</time></trkpt><trkpt lat="44.71051218310849" lon="10.027649337000142"><ele>445.0</ele><time>2026-04-11T14:30:25.999Z</time></trkpt><trkpt lat="44.71044074401084" lon="10.02781845042329"><ele>445.0</ele><time>2026-04-11T14:30:27.999Z</time></trkpt><trkpt lat="44.71041893884092" lon="10.027908890920223"><ele>445.0</ele><time>2026-04-11T14:30:28.999Z</time></trkpt><trkpt lat="44.710397220888105" lon="10.028015095336466"><ele>445.0</ele><time>2026-04-11T14:30:30Z</time></trkpt><trkpt lat="44.71038906984005" lon="10.028103036496637"><ele>445.0</ele><time>2026-04-11T14:30:31Z</time></trkpt><trkpt lat="44.71034375732251" lon="10.028255187112327"><ele>447.00000000000006</ele><time>2026-04-11T14:30:33Z</time></trkpt><trkpt lat="44.7103225338932" lon="10.028362839833614"><ele>449.0</ele><time>2026-04-11T14:30:34Z</time></trkpt><trkpt lat="44.71028404010614" lon="10.028499543136542"><ele>451.0</ele><time>2026-04-11T14:30:36Z</time></trkpt><trkpt lat="44.71026384900632" lon="10.028587235420597"><ele>453.0</ele><time>2026-04-11T14:30:37Z</time></trkpt><trkpt lat="44.71021432196653" lon="10.028715584351502"><ele>455.00000000000006</ele><time>2026-04-11T14:30:39Z</time></trkpt><trkpt lat="44.710147710581076" lon="10.028802115701149"><ele>457.0</ele><time>2026-04-11T14:30:41Z</time></trkpt><trkpt lat="44.71006480798446" lon="10.028838781437814"><ele>457.00000000000006</ele><time>2026-04-11T14:30:43Z</time></trkpt><trkpt lat="44.709972178463644" lon="10.028868880002843"><ele>457.0</ele><time>2026-04-11T14:30:45Z</time></trkpt><trkpt lat="44.70989532939202" lon="10.028888786123089"><ele>457.0</ele><time>2026-04-11T14:30:47Z</time></trkpt><trkpt lat="44.70982280375489" lon="10.028900842098563"><ele>457.0</ele><time>2026-04-11T14:30:49Z</time></trkpt><trkpt lat="44.70974742417736" lon="10.028873422994833"><ele>457.00000000000006</ele><time>2026-04-11T14:30:51Z</time></trkpt><trkpt lat="44.70969152359592" lon="10.028964327097354"><ele>457.0</ele><time>2026-04-11T14:30:54Z</time></trkpt><trkpt lat="44.7096197534163" lon="10.028974659189302"><ele>457.0</ele><time>2026-04-11T14:30:56Z</time></trkpt><trkpt lat="44.70954017453738" lon="10.029005364386386"><ele>457.00000000000006</ele><time>2026-04-11T14:30:58Z</time></trkpt><trkpt lat="44.709482654203256" lon="10.029105559291175"><ele>457.00000000000006</ele><time>2026-04-11T14:31:00Z</time></trkpt><trkpt lat="44.709421545947954" lon="10.02922735220738"><ele>457.0</ele><time>2026-04-11T14:31:02Z</time></trkpt><trkpt lat="44.70937586925553" lon="10.029373882563078"><ele>457.0</ele><time>2026-04-11T14:31:04Z</time></trkpt><trkpt lat="44.70932352569041" lon="10.029496604023054"><ele>457.0</ele><time>2026-04-11T14:31:06Z</time></trkpt><trkpt lat="44.709277541899496" lon="10.029564499757049"><ele>457.00000000000006</ele><time>2026-04-11T14:31:07Z</time></trkpt><trkpt lat="44.70922280728733" lon="10.029652977823718"><ele>457.00000000000006</ele><time>2026-04-11T14:31:08Z</time></trkpt><trkpt lat="44.70917320569684" lon="10.029732240984043"><ele>457.0</ele><time>2026-04-11T14:31:09Z</time></trkpt><trkpt lat="44.70908114137424" lon="10.029842191198888"><ele>457.0</ele><time>2026-04-11T14:31:11Z</time></trkpt><trkpt lat="44.708991380963354" lon="10.0299461387956"><ele>456.6</ele><time>2026-04-11T14:31:13Z</time></trkpt><trkpt lat="44.708912246184184" lon="10.030064264051724"><ele>456.20000000000005</ele><time>2026-04-11T14:31:15.001Z</time></trkpt><trkpt lat="44.70887233719555" lon="10.030133462151493"><ele>455.8</ele><time>2026-04-11T14:31:16.001Z</time></trkpt><trkpt lat="44.70878940006016" lon="10.030271535660761"><ele>455.4</ele><time>2026-04-11T14:31:18.001Z</time></trkpt><trkpt lat="44.70871403300597" lon="10.030405126024093"><ele>455.0</ele><time>2026-04-11T14:31:20.001Z</time></trkpt><trkpt lat="44.70867725265608" lon="10.030503625671658"><ele>455.0</ele><time>2026-04-11T14:31:21.001Z</time></trkpt><trkpt lat="44.70864221670927" lon="10.030608818895884"><ele>455.0</ele><time>2026-04-11T14:31:22.001Z</time></trkpt><trkpt lat="44.708615032829094" lon="10.030710979334577"><ele>455.0</ele><time>2026-04-11T14:31:23.001Z</time></trkpt><trkpt lat="44.70859159534156" lon="10.030806846636827"><ele>455.0</ele><time>2026-04-11T14:31:24.001Z</time></trkpt><trkpt lat="44.70855740944961" lon="10.030885950986786"><ele>455.0</ele><time>2026-04-11T14:31:25.001Z</time></trkpt><trkpt lat="44.70852415971934" lon="10.030965058066888"><ele>455.0</ele><time>2026-04-11T14:31:26.001Z</time></trkpt><trkpt lat="44.70849186434196" lon="10.031059724285406"><ele>455.0</ele><time>2026-04-11T14:31:27.001Z</time></trkpt><trkpt lat="44.70843404582437" lon="10.031200071098434"><ele>454.2</ele><time>2026-04-11T14:31:29.001Z</time></trkpt><trkpt lat="44.70836683955194" lon="10.031350066509894"><ele>453.4</ele><time>2026-04-11T14:31:31.001Z</time></trkpt><trkpt lat="44.70830518056373" lon="10.0314814214074"><ele>452.6</ele><time>2026-04-11T14:31:33.001Z</time></trkpt><trkpt lat="44.70827032995649" lon="10.031629774861361"><ele>451.8</ele><time>2026-04-11T14:31:35.001Z</time></trkpt><trkpt lat="44.70825474768376" lon="10.031723853690362"><ele>451.0</ele><time>2026-04-11T14:31:36.001Z</time></trkpt><trkpt lat="44.7082335254682" lon="10.031824464161202"><ele>451.00000000000006</ele><time>2026-04-11T14:31:37.001Z</time></trkpt><trkpt lat="44.70820715739619" lon="10.031934923113779"><ele>451.0</ele><time>2026-04-11T14:31:38.001Z</time></trkpt><trkpt lat="44.70818054242624" lon="10.032035375544579"><ele>451.0</ele><time>2026-04-11T14:31:39.001Z</time></trkpt><trkpt lat="44.70814706923161" lon="10.032152302172697"><ele>451.0</ele><time>2026-04-11T14:31:40.001Z</time></trkpt><trkpt lat="44.70811498691216" lon="10.03225907828347"><ele>451.00000000000006</ele><time>2026-04-11T14:31:41.001Z</time></trkpt><trkpt lat="44.70807935893171" lon="10.032353950379767"><ele>451.0</ele><time>2026-04-11T14:31:42.001Z</time></trkpt><trkpt lat="44.70805107925452" lon="10.032433827600473"><ele>450.2857142857143</ele><time>2026-04-11T14:31:43.001Z</time></trkpt><trkpt lat="44.708021501160694" lon="10.032529611122678"><ele>449.5714285714286</ele><time>2026-04-11T14:31:44.001Z</time></trkpt><trkpt lat="44.707996693041665" lon="10.03261828290358"><ele>448.8571428571429</ele><time>2026-04-11T14:31:45.001Z</time></trkpt><trkpt lat="44.707977018007675" lon="10.032717290917038"><ele>448.1428571428571</ele><time>2026-04-11T14:31:46.001Z</time></trkpt><trkpt lat="44.70796104074356" lon="10.032816008521703"><ele>447.42857142857144</ele><time>2026-04-11T14:31:47.001Z</time></trkpt><trkpt lat="44.707943876573246" lon="10.032934207281237"><ele>446.7142857142857</ele><time>2026-04-11T14:31:48.001Z</time></trkpt><trkpt lat="44.70793222648138" lon="10.033032366596615"><ele>446.0</ele><time>2026-04-11T14:31:49.001Z</time></trkpt><trkpt lat="44.70791857874674" lon="10.033133212758756"><ele>445.99999999999994</ele><time>2026-04-11T14:31:50.001Z</time></trkpt><trkpt lat="44.707911103414766" lon="10.033225931902622"><ele>446.0</ele><time>2026-04-11T14:31:51.001Z</time></trkpt><trkpt lat="44.70790698247874" lon="10.033370680258216"><ele>446.0</ele><time>2026-04-11T14:31:53.001Z</time></trkpt><trkpt lat="44.7078952929203" lon="10.033514364391895"><ele>446.0</ele><time>2026-04-11T14:31:55.001Z</time></trkpt><trkpt lat="44.70783780715073" lon="10.033601286900494"><ele>445.99999999999994</ele><time>2026-04-11T14:31:57.001Z</time></trkpt><trkpt lat="44.7077639481428" lon="10.033628828585499"><ele>446.0</ele><time>2026-04-11T14:32:00.001Z</time></trkpt><trkpt lat="44.70768080336829" lon="10.033678337364162"><ele>445.0</ele><time>2026-04-11T14:32:03.001Z</time></trkpt><trkpt lat="44.70759449378582" lon="10.033712797726906"><ele>444.0</ele><time>2026-04-11T14:32:06.002Z</time></trkpt><trkpt lat="44.70750326755155" lon="10.033754326156217"><ele>443.0</ele><time>2026-04-11T14:32:09.002Z</time></trkpt><trkpt lat="44.70741485837515" lon="10.033774975953246"><ele>442.0</ele><time>2026-04-11T14:32:11.002Z</time></trkpt><trkpt lat="44.70734088959" lon="10.033806238396627"><ele>441.0</ele><time>2026-04-11T14:32:13.002Z</time></trkpt><trkpt lat="44.707251509230495" lon="10.033887197756451"><ele>441.0</ele><time>2026-04-11T14:32:15.002Z</time></trkpt><trkpt lat="44.70720917656789" lon="10.03398209064571"><ele>441.0</ele><time>2026-04-11T14:32:17.002Z</time></trkpt><trkpt lat="44.70718585756319" lon="10.034093361058925"><ele>441.0</ele><time>2026-04-11T14:32:19.002Z</time></trkpt><trkpt lat="44.707149715893934" lon="10.034198618045117"><ele>441.0</ele><time>2026-04-11T14:32:21.002Z</time></trkpt><trkpt lat="44.70715407340486" lon="10.034351662963461"><ele>441.0</ele><time>2026-04-11T14:32:23.002Z</time></trkpt><trkpt lat="44.70715111497786" lon="10.034443552180425"><ele>441.0</ele><time>2026-04-11T14:32:24.002Z</time></trkpt><trkpt lat="44.70716063400555" lon="10.034598382721002"><ele>440.25</ele><time>2026-04-11T14:32:26.002Z</time></trkpt><trkpt lat="44.70713366280636" lon="10.034756863971307"><ele>439.5</ele><time>2026-04-11T14:32:28.002Z</time></trkpt><trkpt lat="44.70705349931347" lon="10.034878012851545"><ele>438.75</ele><time>2026-04-11T14:32:30Z</time></trkpt><trkpt lat="44.70695933825106" lon="10.034996991960014"><ele>438.0</ele><time>2026-04-11T14:32:32Z</time></trkpt><trkpt lat="44.7068665031404" lon="10.035117707331803"><ele>435.1666666666667</ele><time>2026-04-11T14:32:34Z</time></trkpt><trkpt lat="44.70680824723638" lon="10.035174092347024"><ele>432.33333333333337</ele><time>2026-04-11T14:32:35Z</time></trkpt><trkpt lat="44.70675238641149" lon="10.035231463238048"><ele>429.5</ele><time>2026-04-11T14:32:36Z</time></trkpt><trkpt lat="44.70669625529113" lon="10.035304962587361"><ele>426.6666666666667</ele><time>2026-04-11T14:32:37Z</time></trkpt><trkpt lat="44.70665288156392" lon="10.035379817480083"><ele>423.83333333333337</ele><time>2026-04-11T14:32:38Z</time></trkpt><trkpt lat="44.70661374480275" lon="10.035454121410668"><ele>421.0</ele><time>2026-04-11T14:32:39Z</time></trkpt><trkpt lat="44.706538982234605" lon="10.035588543612233"><ele>421.0</ele><time>2026-04-11T14:32:41Z</time></trkpt><trkpt lat="44.70646199899445" lon="10.035736528113645"><ele>421.0</ele><time>2026-04-11T14:32:43Z</time></trkpt><trkpt lat="44.70641772163926" lon="10.035820772906478"><ele>421.0</ele><time>2026-04-11T14:32:44Z</time></trkpt><trkpt lat="44.70637589735458" lon="10.035919364370317"><ele>421.0</ele><time>2026-04-11T14:32:45Z</time></trkpt><trkpt lat="44.70633046351059" lon="10.036035339179035"><ele>421.0</ele><time>2026-04-11T14:32:46Z</time></trkpt><trkpt lat="44.70629302035808" lon="10.036132886885193"><ele>420.20000000000005</ele><time>2026-04-11T14:32:47Z</time></trkpt><trkpt lat="44.706210471993515" lon="10.036290128001138"><ele>419.40000000000003</ele><time>2026-04-11T14:32:49Z</time></trkpt><trkpt lat="44.70616378073261" lon="10.036370946400398"><ele>418.6</ele><time>2026-04-11T14:32:50Z</time></trkpt><trkpt lat="44.70609397927634" lon="10.036483779578141"><ele>417.8</ele><time>2026-04-11T14:32:52Z</time></trkpt><trkpt lat="44.70601359484136" lon="10.036616570602371"><ele>417.0</ele><time>2026-04-11T14:32:54Z</time></trkpt><trkpt lat="44.70598230607491" lon="10.0366973374345"><ele>415.6</ele><time>2026-04-11T14:32:55Z</time></trkpt><trkpt lat="44.70596128686305" lon="10.036784759790502"><ele>414.20000000000005</ele><time>2026-04-11T14:32:56Z</time></trkpt><trkpt lat="44.705946596860635" lon="10.03687147528151"><ele>412.8</ele><time>2026-04-11T14:32:57Z</time></trkpt><trkpt lat="44.705930872966746" lon="10.037026770886515"><ele>411.4</ele><time>2026-04-11T14:32:59Z</time></trkpt><trkpt lat="44.705919340234765" lon="10.037176211924866"><ele>410.0</ele><time>2026-04-11T14:33:01Z</time></trkpt><trkpt lat="44.705895064972324" lon="10.037339296487959"><ele>409.99999999999994</ele><time>2026-04-11T14:33:03Z</time></trkpt><trkpt lat="44.7058748328321" lon="10.037431200637899"><ele>410.0</ele><time>2026-04-11T14:33:04Z</time></trkpt><trkpt lat="44.70586009607465" lon="10.037524942804506"><ele>410.0</ele><time>2026-04-11T14:33:05Z</time></trkpt><trkpt lat="44.70584215066679" lon="10.037620712340368"><ele>410.0</ele><time>2026-04-11T14:33:06Z</time></trkpt><trkpt lat="44.70582137783675" lon="10.037707983572034"><ele>409.99999999999994</ele><time>2026-04-11T14:33:07Z</time></trkpt><trkpt lat="44.70580121153884" lon="10.037797481605605"><ele>410.0</ele><time>2026-04-11T14:33:08Z</time></trkpt><trkpt lat="44.70576146428169" lon="10.037947547661291"><ele>410.0</ele><time>2026-04-11T14:33:10Z</time></trkpt><trkpt lat="44.70569158017683" lon="10.038077283376596"><ele>410.0</ele><time>2026-04-11T14:33:12Z</time></trkpt><trkpt lat="44.70565443038044" lon="10.038149696019723"><ele>410.0</ele><time>2026-04-11T14:33:13.001Z</time></trkpt><trkpt lat="44.705580776663155" lon="10.038287706072412"><ele>410.0</ele><time>2026-04-11T14:33:15.001Z</time></trkpt><trkpt lat="44.705557925765696" lon="10.03837486338152"><ele>410.0</ele><time>2026-04-11T14:33:16.001Z</time></trkpt><trkpt lat="44.70553585486599" lon="10.038490246606004"><ele>410.0</ele><time>2026-04-11T14:33:17.001Z</time></trkpt><trkpt lat="44.705509396211674" lon="10.038628705908685"><ele>410.0</ele><time>2026-04-11T14:33:18.001Z</time></trkpt><trkpt lat="44.70547701285024" lon="10.038803680558376"><ele>410.0</ele><time>2026-04-11T14:33:19.001Z</time></trkpt><trkpt lat="44.70543891497853" lon="10.03898889788799"><ele>410.0</ele><time>2026-04-11T14:33:20.001Z</time></trkpt><trkpt lat="44.70541462206187" lon="10.039154520912424"><ele>410.0</ele><time>2026-04-11T14:33:21.001Z</time></trkpt><trkpt lat="44.705410348465115" lon="10.039299508918225"><ele>410.0</ele><time>2026-04-11T14:33:22.001Z</time></trkpt><trkpt lat="44.7054185720731" lon="10.039427037604678"><ele>410.0</ele><time>2026-04-11T14:33:23.001Z</time></trkpt><trkpt lat="44.70541076043574" lon="10.039584214409276"><ele>410.0</ele><time>2026-04-11T14:33:25.001Z</time></trkpt><trkpt lat="44.70536278318446" lon="10.039679431978174"><ele>410.0</ele><time>2026-04-11T14:33:26.001Z</time></trkpt><trkpt lat="44.70529878951608" lon="10.039768410154096"><ele>410.4</ele><time>2026-04-11T14:33:27.001Z</time></trkpt><trkpt lat="44.70522745073966" lon="10.03985548692808"><ele>410.8</ele><time>2026-04-11T14:33:28.001Z</time></trkpt><trkpt lat="44.705156909428574" lon="10.039933243464025"><ele>411.20000000000005</ele><time>2026-04-11T14:33:29.001Z</time></trkpt><trkpt lat="44.70508700260987" lon="10.040008681361007"><ele>411.6</ele><time>2026-04-11T14:33:30.001Z</time></trkpt><trkpt lat="44.70502555006277" lon="10.040087427945968"><ele>412.0</ele><time>2026-04-11T14:33:31.001Z</time></trkpt><trkpt lat="44.704925605708056" lon="10.040213330636655"><ele>414.1666666666667</ele><time>2026-04-11T14:33:33.001Z</time></trkpt><trkpt lat="44.704884961267716" lon="10.040297753794963"><ele>416.33333333333337</ele><time>2026-04-11T14:33:34.001Z</time></trkpt><trkpt lat="44.70484034863644" lon="10.040390575987985"><ele>418.5</ele><time>2026-04-11T14:33:35.001Z</time></trkpt><trkpt lat="44.704728177820336" lon="10.0405038024632"><ele>420.66666666666663</ele><time>2026-04-11T14:33:37.001Z</time></trkpt><trkpt lat="44.70467597624824" lon="10.040553832959462"><ele>422.8333333333333</ele><time>2026-04-11T14:33:38.001Z</time></trkpt><trkpt lat="44.70460335586995" lon="10.040596430521257"><ele>425.0</ele><time>2026-04-11T14:33:42.001Z</time></trkpt><trkpt lat="44.70452176784505" lon="10.040656295785682"><ele>425.0</ele><time>2026-04-11T14:33:46.001Z</time></trkpt><trkpt lat="44.704446269405885" lon="10.040747801153064"><ele>425.0</ele><time>2026-04-11T14:33:48.001Z</time></trkpt><trkpt lat="44.704392386941116" lon="10.040856816779868"><ele>425.0</ele><time>2026-04-11T14:33:50.001Z</time></trkpt><trkpt lat="44.70434060751799" lon="10.040982619593494"><ele>425.0</ele><time>2026-04-11T14:33:52.001Z</time></trkpt><trkpt lat="44.70427379599188" lon="10.04112396101481"><ele>425.0</ele><time>2026-04-11T14:33:54.001Z</time></trkpt><trkpt lat="44.704212442487155" lon="10.041240409798899"><ele>425.66666666666663</ele><time>2026-04-11T14:33:56.001Z</time></trkpt><trkpt lat="44.70417278450243" lon="10.04131308937912"><ele>426.3333333333333</ele><time>2026-04-11T14:33:57.001Z</time></trkpt><trkpt lat="44.704112782243904" lon="10.041454916066602"><ele>427.0</ele><time>2026-04-11T14:33:59.001Z</time></trkpt><trkpt lat="44.70407220338935" lon="10.041536628200287"><ele>427.66666666666663</ele><time>2026-04-11T14:34:00.001Z</time></trkpt><trkpt lat="44.70401995538376" lon="10.041635237013663"><ele>428.3333333333333</ele><time>2026-04-11T14:34:02.002Z</time></trkpt><trkpt lat="44.703958225726836" lon="10.041730658591636"><ele>429.0</ele><time>2026-04-11T14:34:04.002Z</time></trkpt><trkpt lat="44.70389010594895" lon="10.041848649694565"><ele>430.2</ele><time>2026-04-11T14:34:06.002Z</time></trkpt><trkpt lat="44.70382706663912" lon="10.041920944999642"><ele>431.4</ele><time>2026-04-11T14:34:08.002Z</time></trkpt><trkpt lat="44.70377968884358" lon="10.042038523861832"><ele>432.6</ele><time>2026-04-11T14:34:10.002Z</time></trkpt><trkpt lat="44.70372422624605" lon="10.042171387250455"><ele>433.8</ele><time>2026-04-11T14:34:12.002Z</time></trkpt><trkpt lat="44.70366827772233" lon="10.042258915413889"><ele>435.0</ele><time>2026-04-11T14:34:14.002Z</time></trkpt><trkpt lat="44.703615507917974" lon="10.042353704082874"><ele>432.6</ele><time>2026-04-11T14:34:16.002Z</time></trkpt><trkpt lat="44.703539768432236" lon="10.042395741163071"><ele>430.2</ele><time>2026-04-11T14:34:18.002Z</time></trkpt><trkpt lat="44.703448936089515" lon="10.042420637626186"><ele>427.79999999999995</ele><time>2026-04-11T14:34:20.002Z</time></trkpt><trkpt lat="44.70336294301818" lon="10.04247311336242"><ele>425.4</ele><time>2026-04-11T14:34:22.002Z</time></trkpt><trkpt lat="44.703295543135184" lon="10.042566025731508"><ele>423.0</ele><time>2026-04-11T14:34:24.002Z</time></trkpt><trkpt lat="44.70321380686755" lon="10.042640064517228"><ele>423.0</ele><time>2026-04-11T14:34:26.002Z</time></trkpt><trkpt lat="44.703138071686716" lon="10.04270371836179"><ele>423.0</ele><time>2026-04-11T14:34:28.002Z</time></trkpt><trkpt lat="44.70305912640138" lon="10.042728197815357"><ele>423.0</ele><time>2026-04-11T14:34:31.002Z</time></trkpt><trkpt lat="44.703009839413205" lon="10.042792893544421"><ele>423.0</ele><time>2026-04-11T14:34:34.002Z</time></trkpt><trkpt lat="44.70296455848124" lon="10.04288399588226"><ele>423.0</ele><time>2026-04-11T14:34:40Z</time></trkpt><trkpt lat="44.70291144099402" lon="10.042975581789793"><ele>423.0</ele><time>2026-04-11T14:34:44Z</time></trkpt><trkpt lat="44.702877240736335" lon="10.04309572034319"><ele>423.0</ele><time>2026-04-11T14:34:48Z</time></trkpt><trkpt lat="44.70287863677917" lon="10.043225520770358"><ele>423.0</ele><time>2026-04-11T14:34:50Z</time></trkpt><trkpt lat="44.70290883763098" lon="10.043359215312655"><ele>423.0</ele><time>2026-04-11T14:34:53Z</time></trkpt><trkpt lat="44.70298565449772" lon="10.043465296959386"><ele>423.0</ele><time>2026-04-11T14:34:55Z</time></trkpt><trkpt lat="44.70300973963318" lon="10.043557809230789"><ele>423.0</ele><time>2026-04-11T14:34:56Z</time></trkpt><trkpt lat="44.703040724141594" lon="10.043647518309289"><ele>423.0</ele><time>2026-04-11T14:34:57Z</time></trkpt><trkpt lat="44.7030667436724" lon="10.043748052690871"><ele>423.1666666666667</ele><time>2026-04-11T14:34:58Z</time></trkpt><trkpt lat="44.70309126042735" lon="10.043833350145801"><ele>423.33333333333337</ele><time>2026-04-11T14:34:59Z</time></trkpt><trkpt lat="44.70308136594268" lon="10.043931200036067"><ele>423.5</ele><time>2026-04-11T14:35:00Z</time></trkpt><trkpt lat="44.70311443960313" lon="10.044011000201648"><ele>423.6666666666667</ele><time>2026-04-11T14:35:01Z</time></trkpt><trkpt lat="44.70313679125557" lon="10.044101892716482"><ele>423.83333333333337</ele><time>2026-04-11T14:35:02Z</time></trkpt><trkpt lat="44.703174880068616" lon="10.044192015690781"><ele>424.0</ele><time>2026-04-11T14:35:03Z</time></trkpt><trkpt lat="44.70325571714695" lon="10.044304793991746"><ele>423.2</ele><time>2026-04-11T14:35:05Z</time></trkpt><trkpt lat="44.703302542881815" lon="10.044374287455087"><ele>422.4</ele><time>2026-04-11T14:35:06Z</time></trkpt><trkpt lat="44.703393426065446" lon="10.044483397122413"><ele>421.6</ele><time>2026-04-11T14:35:08Z</time></trkpt><trkpt lat="44.703461794407936" lon="10.044603489811877"><ele>420.8</ele><time>2026-04-11T14:35:10Z</time></trkpt><trkpt lat="44.70348598817912" lon="10.044706566417476"><ele>420.0</ele><time>2026-04-11T14:35:12Z</time></trkpt><trkpt lat="44.7035056556585" lon="10.044815513606581"><ele>419.8333333333333</ele><time>2026-04-11T14:35:14Z</time></trkpt><trkpt lat="44.70347764701565" lon="10.044972632956165"><ele>419.66666666666663</ele><time>2026-04-11T14:35:16.001Z</time></trkpt><trkpt lat="44.70344705016192" lon="10.045062530188124"><ele>419.5</ele><time>2026-04-11T14:35:17.001Z</time></trkpt><trkpt lat="44.703419469386496" lon="10.045144817421205"><ele>419.3333333333333</ele><time>2026-04-11T14:35:18.001Z</time></trkpt><trkpt lat="44.703388359390075" lon="10.04523470483236"><ele>419.16666666666663</ele><time>2026-04-11T14:35:19.001Z</time></trkpt><trkpt lat="44.70338300648783" lon="10.045361574215207"><ele>419.0</ele><time>2026-04-11T14:35:21.001Z</time></trkpt><trkpt lat="44.703431768145094" lon="10.045461934941398"><ele>419.0</ele><time>2026-04-11T14:35:48.001Z</time></trkpt><trkpt lat="44.703457209107874" lon="10.04557721892363"><ele>419.0</ele><time>2026-04-11T14:35:50.001Z</time></trkpt><trkpt lat="44.703451054908065" lon="10.045687689928503"><ele>419.0</ele><time>2026-04-11T14:35:52.001Z</time></trkpt><trkpt lat="44.70347658895174" lon="10.045817211699339"><ele>419.0</ele><time>2026-04-11T14:35:54.001Z</time></trkpt><trkpt lat="44.70352248752548" lon="10.045906994375757"><ele>419.0</ele><time>2026-04-11T14:35:56.001Z</time></trkpt><trkpt lat="44.70357557845268" lon="10.046065786969093"><ele>423.6</ele><time>2026-04-11T14:35:58.001Z</time></trkpt><trkpt lat="44.703605758965566" lon="10.046166947680938"><ele>428.2</ele><time>2026-04-11T14:36:00.001Z</time></trkpt><trkpt lat="44.70364782283192" lon="10.04630433019185"><ele>432.80000000000007</ele><time>2026-04-11T14:36:02.001Z</time></trkpt><trkpt lat="44.70365457675701" lon="10.046471147467441"><ele>437.40000000000003</ele><time>2026-04-11T14:36:04.001Z</time></trkpt><trkpt lat="44.70363794001825" lon="10.046609452668285"><ele>442.0</ele><time>2026-04-11T14:36:06.002Z</time></trkpt><trkpt lat="44.7036170096025" lon="10.046699934414226"><ele>442.0</ele><time>2026-04-11T14:36:08.002Z</time></trkpt><trkpt lat="44.70359186835481" lon="10.046880140795931"><ele>442.00000000000006</ele><time>2026-04-11T14:36:10.002Z</time></trkpt><trkpt lat="44.70357058767567" lon="10.046982480706037"><ele>442.00000000000006</ele><time>2026-04-11T14:36:11.002Z</time></trkpt><trkpt lat="44.703587237361575" lon="10.047171626238832"><ele>442.0</ele><time>2026-04-11T14:36:13.002Z</time></trkpt><trkpt lat="44.703611663059675" lon="10.04727305136245"><ele>442.0</ele><time>2026-04-11T14:36:14.002Z</time></trkpt><trkpt lat="44.70363482908162" lon="10.047369526091606"><ele>442.00000000000006</ele><time>2026-04-11T14:36:15.002Z</time></trkpt><trkpt lat="44.70367141840588" lon="10.047458644162965"><ele>442.0</ele><time>2026-04-11T14:36:16.002Z</time></trkpt><trkpt lat="44.703716473705875" lon="10.047527390349304"><ele>442.0</ele><time>2026-04-11T14:36:17.002Z</time></trkpt><trkpt lat="44.7037725930161" lon="10.047637742484866"><ele>442.0</ele><time>2026-04-11T14:36:19.002Z</time></trkpt><trkpt lat="44.703772440778785" lon="10.047765431360887"><ele>442.00000000000006</ele><time>2026-04-11T14:36:21.002Z</time></trkpt><trkpt lat="44.70376228676128" lon="10.047864837771876"><ele>442.0</ele><time>2026-04-11T14:36:24.002Z</time></trkpt><trkpt lat="44.70375165768755" lon="10.047967709304706"><ele>439.50000000000006</ele><time>2026-04-11T14:36:26.002Z</time></trkpt><trkpt lat="44.70373092555452" lon="10.048102094711014"><ele>437.0</ele><time>2026-04-11T14:36:28.002Z</time></trkpt><trkpt lat="44.703723957064526" lon="10.04826739749801"><ele>434.5</ele><time>2026-04-11T14:36:30.002Z</time></trkpt><trkpt lat="44.70370995971832" lon="10.04835685769028"><ele>432.0</ele><time>2026-04-11T14:36:31.002Z</time></trkpt><trkpt lat="44.703694154238214" lon="10.048458894581401"><ele>429.50000000000006</ele><time>2026-04-11T14:36:32.002Z</time></trkpt><trkpt lat="44.70366924620595" lon="10.048563601395776"><ele>427.0</ele><time>2026-04-11T14:36:33.002Z</time></trkpt><trkpt lat="44.70363277760512" lon="10.048666251511882"><ele>425.50000000000006</ele><time>2026-04-11T14:36:34.002Z</time></trkpt><trkpt lat="44.703598872666284" lon="10.04878039919526"><ele>424.0</ele><time>2026-04-11T14:36:35.002Z</time></trkpt><trkpt lat="44.70356385894832" lon="10.04889585930944"><ele>422.5</ele><time>2026-04-11T14:36:36.002Z</time></trkpt><trkpt lat="44.70353303200273" lon="10.049014388936719"><ele>421.0</ele><time>2026-04-11T14:36:37.002Z</time></trkpt><trkpt lat="44.70350476219223" lon="10.049109837555177"><ele>419.50000000000006</ele><time>2026-04-11T14:36:38.002Z</time></trkpt><trkpt lat="44.70348871363196" lon="10.049222436912576"><ele>418.0</ele><time>2026-04-11T14:36:39.002Z</time></trkpt><trkpt lat="44.703481998516295" lon="10.04934950492886"><ele>418.0</ele><time>2026-04-11T14:36:40.002Z</time></trkpt><trkpt lat="44.70347904607708" lon="10.049494215780493"><ele>418.0</ele><time>2026-04-11T14:36:41Z</time></trkpt><trkpt lat="44.70347558487879" lon="10.049675195272469"><ele>418.0</ele><time>2026-04-11T14:36:42Z</time></trkpt><trkpt lat="44.70346811880844" lon="10.049809884832966"><ele>418.0</ele><time>2026-04-11T14:36:43Z</time></trkpt><trkpt lat="44.70345746353901" lon="10.049911538783993"><ele>418.0</ele><time>2026-04-11T14:36:44Z</time></trkpt><trkpt lat="44.70345185359177" lon="10.050005331859449"><ele>418.50000000000006</ele><time>2026-04-11T14:36:45Z</time></trkpt><trkpt lat="44.703415195095886" lon="10.050140677246437"><ele>419.0</ele><time>2026-04-11T14:36:47Z</time></trkpt><trkpt lat="44.70338283656473" lon="10.050226300790257"><ele>419.5</ele><time>2026-04-11T14:36:48Z</time></trkpt><trkpt lat="44.703354797902705" lon="10.050327923099335"><ele>420.0</ele><time>2026-04-11T14:36:49Z</time></trkpt><trkpt lat="44.70332021135242" lon="10.050432645196434"><ele>420.50000000000006</ele><time>2026-04-11T14:36:50Z</time></trkpt><trkpt lat="44.703263680193785" lon="10.050517927772727"><ele>421.0</ele><time>2026-04-11T14:36:51Z</time></trkpt><trkpt lat="44.70321179466652" lon="10.050620911825193"><ele>421.00000000000006</ele><time>2026-04-11T14:36:52Z</time></trkpt><trkpt lat="44.70318270434432" lon="10.050719504375532"><ele>421.0</ele><time>2026-04-11T14:36:53Z</time></trkpt><trkpt lat="44.70313680212623" lon="10.050804626811498"><ele>421.0</ele><time>2026-04-11T14:36:54Z</time></trkpt><trkpt lat="44.70309639077277" lon="10.050893675743604"><ele>421.0</ele><time>2026-04-11T14:36:55Z</time></trkpt><trkpt lat="44.70305696834628" lon="10.050977194509128"><ele>421.00000000000006</ele><time>2026-04-11T14:36:56Z</time></trkpt><trkpt lat="44.703003596424104" lon="10.05114043154048"><ele>421.0</ele><time>2026-04-11T14:36:58Z</time></trkpt><trkpt lat="44.70296289963938" lon="10.051292528785648"><ele>420.6666666666667</ele><time>2026-04-11T14:37:00Z</time></trkpt><trkpt lat="44.70293535308021" lon="10.05137301337962"><ele>420.33333333333337</ele><time>2026-04-11T14:37:01Z</time></trkpt><trkpt lat="44.70287002752926" lon="10.051506684976633"><ele>420.0</ele><time>2026-04-11T14:37:03Z</time></trkpt><trkpt lat="44.7028442533248" lon="10.051592202738581"><ele>419.66666666666663</ele><time>2026-04-11T14:37:04Z</time></trkpt><trkpt lat="44.70283000053098" lon="10.051683511559949"><ele>419.3333333333333</ele><time>2026-04-11T14:37:05Z</time></trkpt><trkpt lat="44.70278214431046" lon="10.051836253418909"><ele>419.0</ele><time>2026-04-11T14:37:07Z</time></trkpt><trkpt lat="44.70273817673764" lon="10.051969864063105"><ele>418.99999999999994</ele><time>2026-04-11T14:37:09Z</time></trkpt><trkpt lat="44.70267385038835" lon="10.051997910498516"><ele>419.0</ele><time>2026-04-11T14:37:10Z</time></trkpt><trkpt lat="44.70263554498744" lon="10.052084261808732"><ele>419.0</ele><time>2026-04-11T14:37:11Z</time></trkpt><trkpt lat="44.70260496770426" lon="10.05217019243439"><ele>419.0</ele><time>2026-04-11T14:37:12Z</time></trkpt><trkpt lat="44.702566046877365" lon="10.052270612478617"><ele>418.99999999999994</ele><time>2026-04-11T14:37:14Z</time></trkpt><trkpt lat="44.702492896582974" lon="10.05234502674304"><ele>419.0</ele><time>2026-04-11T14:37:16Z</time></trkpt><trkpt lat="44.70242620729219" lon="10.052383272262219"><ele>419.0</ele><time>2026-04-11T14:37:18Z</time></trkpt><trkpt lat="44.702367329991596" lon="10.052425067995896"><ele>419.0</ele><time>2026-04-11T14:37:21.001Z</time></trkpt><trkpt lat="44.702284739072475" lon="10.052464473267062"><ele>419.0</ele><time>2026-04-11T14:37:23.001Z</time></trkpt><trkpt lat="44.70219171265735" lon="10.052515271136318"><ele>419.0</ele><time>2026-04-11T14:37:25.001Z</time></trkpt><trkpt lat="44.70213045781793" lon="10.052553101598114"><ele>419.0</ele><time>2026-04-11T14:37:26.001Z</time></trkpt><trkpt lat="44.702029074017055" lon="10.052671922641283"><ele>420.16666666666663</ele><time>2026-04-11T14:37:28.001Z</time></trkpt><trkpt lat="44.70197847050424" lon="10.052740676881442"><ele>421.3333333333333</ele><time>2026-04-11T14:37:29.001Z</time></trkpt><trkpt lat="44.70193472004408" lon="10.052883591879826"><ele>422.5</ele><time>2026-04-11T14:37:31.001Z</time></trkpt><trkpt lat="44.701900464564616" lon="10.052964396370673"><ele>423.66666666666663</ele><time>2026-04-11T14:37:32.001Z</time></trkpt><trkpt lat="44.7018439977939" lon="10.05303128831554"><ele>424.8333333333333</ele><time>2026-04-11T14:37:33.001Z</time></trkpt><trkpt lat="44.701805668176256" lon="10.053133306747545"><ele>426.0</ele><time>2026-04-11T14:37:34.001Z</time></trkpt><trkpt lat="44.70176636773005" lon="10.053206850103214"><ele>427.20000000000005</ele><time>2026-04-11T14:37:35.001Z</time></trkpt><trkpt lat="44.70172069905783" lon="10.053335819026419"><ele>428.40000000000003</ele><time>2026-04-11T14:37:37.001Z</time></trkpt><trkpt lat="44.70166715112173" lon="10.053396029541403"><ele>429.6</ele><time>2026-04-11T14:37:43.001Z</time></trkpt><trkpt lat="44.70158821177288" lon="10.053481154707681"><ele>430.8</ele><time>2026-04-11T14:37:44.001Z</time></trkpt><trkpt lat="44.70156995888239" lon="10.053630306906664"><ele>432.0</ele><time>2026-04-11T14:37:46.001Z</time></trkpt><trkpt lat="44.70153553494629" lon="10.053811379853759"><ele>432.0</ele><time>2026-04-11T14:37:48.001Z</time></trkpt><trkpt lat="44.701514854596745" lon="10.053927695529781"><ele>432.00000000000006</ele><time>2026-04-11T14:37:49.001Z</time></trkpt><trkpt lat="44.70148790153301" lon="10.054021453837349"><ele>432.00000000000006</ele><time>2026-04-11T14:37:50.001Z</time></trkpt><trkpt lat="44.701429471966456" lon="10.054165387130405"><ele>432.0</ele><time>2026-04-11T14:37:52.001Z</time></trkpt><trkpt lat="44.701348175751654" lon="10.054276092701791"><ele>432.0</ele><time>2026-04-11T14:37:55.001Z</time></trkpt><trkpt lat="44.701663027503415" lon="10.054774945866606"><ele>432.1666666666667</ele><time>2026-04-11T14:37:56.001Z</time></trkpt><trkpt lat="44.70164414803899" lon="10.0548832857595"><ele>432.33333333333337</ele><time>2026-04-11T14:37:57.001Z</time></trkpt><trkpt lat="44.701641871219515" lon="10.054975020609065"><ele>432.5</ele><time>2026-04-11T14:37:58.001Z</time></trkpt><trkpt lat="44.701659375765544" lon="10.055073630533757"><ele>432.6666666666667</ele><time>2026-04-11T14:37:59.001Z</time></trkpt><trkpt lat="44.70167060806293" lon="10.055167512404287"><ele>432.83333333333337</ele><time>2026-04-11T14:38:00.001Z</time></trkpt><trkpt lat="44.70167462273144" lon="10.055314005970116"><ele>433.0</ele><time>2026-04-11T14:38:02.001Z</time></trkpt><trkpt lat="44.70163312090803" lon="10.055431180847764"><ele>432.50000000000006</ele><time>2026-04-11T14:38:04.001Z</time></trkpt><trkpt lat="44.70158361474209" lon="10.055532512599793"><ele>432.0</ele><time>2026-04-11T14:38:05.001Z</time></trkpt><trkpt lat="44.701543208470795" lon="10.055606281193233"><ele>431.5</ele><time>2026-04-11T14:38:06.001Z</time></trkpt><trkpt lat="44.70146296090953" lon="10.055689269359144"><ele>431.0</ele><time>2026-04-11T14:38:08.001Z</time></trkpt><trkpt lat="44.701492456395286" lon="10.055794529911353"><ele>430.50000000000006</ele><time>2026-04-11T14:38:10.001Z</time></trkpt><trkpt lat="44.70158875565645" lon="10.05576168108774"><ele>430.0</ele><time>2026-04-11T14:38:12.002Z</time></trkpt><trkpt lat="44.70165395596556" lon="10.055702761799244"><ele>430.0</ele><time>2026-04-11T14:38:13.002Z</time></trkpt><trkpt lat="44.701718304393395" lon="10.055627930628516"><ele>430.0</ele><time>2026-04-11T14:38:14.002Z</time></trkpt><trkpt lat="44.70183846881507" lon="10.0555991215533"><ele>430.0</ele><time>2026-04-11T14:38:16.002Z</time></trkpt><trkpt lat="44.701943442498816" lon="10.055553115684667"><ele>430.0</ele><time>2026-04-11T14:38:18.002Z</time></trkpt><trkpt lat="44.70200054614967" lon="10.05549405776001"><ele>430.0</ele><time>2026-04-11T14:38:20.002Z</time></trkpt><trkpt lat="44.702095962487576" lon="10.055508292132812"><ele>426.8</ele><time>2026-04-11T14:38:23.002Z</time></trkpt><trkpt lat="44.702094140121005" lon="10.055604264625867"><ele>423.6</ele><time>2026-04-11T14:38:25.002Z</time></trkpt><trkpt lat="44.70207023380323" lon="10.055752024506392"><ele>420.4</ele><time>2026-04-11T14:38:27.002Z</time></trkpt><trkpt lat="44.70203926849551" lon="10.05588119735627"><ele>417.2</ele><time>2026-04-11T14:38:28.002Z</time></trkpt><trkpt lat="44.70202342130934" lon="10.05597193350454"><ele>414.0</ele><time>2026-04-11T14:38:29.002Z</time></trkpt><trkpt lat="44.70199906092608" lon="10.056141566711693"><ele>412.3333333333333</ele><time>2026-04-11T14:38:31.002Z</time></trkpt><trkpt lat="44.70199204470961" lon="10.056235170209531"><ele>410.66666666666663</ele><time>2026-04-11T14:38:33.002Z</time></trkpt><trkpt lat="44.701999719361766" lon="10.056365210625533"><ele>409.0</ele><time>2026-04-11T14:38:36.002Z</time></trkpt><trkpt lat="44.702040517239155" lon="10.056451987814645"><ele>407.3333333333333</ele><time>2026-04-11T14:38:39.002Z</time></trkpt><trkpt lat="44.70208023717657" lon="10.056546969503936"><ele>405.66666666666663</ele><time>2026-04-11T14:38:42.002Z</time></trkpt><trkpt lat="44.70211290056655" lon="10.056625850751367"><ele>404.0</ele><time>2026-04-11T14:38:44.002Z</time></trkpt><trkpt lat="44.702175388634146" lon="10.056762414306382"><ele>402.2</ele><time>2026-04-11T14:38:46.002Z</time></trkpt><trkpt lat="44.70219297258436" lon="10.056847925937033"><ele>400.4</ele><time>2026-04-11T14:38:47Z</time></trkpt><trkpt lat="44.702213607927305" lon="10.056939770927881"><ele>398.6</ele><time>2026-04-11T14:38:48Z</time></trkpt><trkpt lat="44.70223069196914" lon="10.05711211642735"><ele>396.8</ele><time>2026-04-11T14:38:50Z</time></trkpt><trkpt lat="44.70224174953971" lon="10.05726752644971"><ele>395.0</ele><time>2026-04-11T14:38:52Z</time></trkpt><trkpt lat="44.70225972001275" lon="10.05744049968792"><ele>394.49999999999994</ele><time>2026-04-11T14:38:54Z</time></trkpt><trkpt lat="44.70227231849762" lon="10.057535811353796"><ele>394.0</ele><time>2026-04-11T14:38:55Z</time></trkpt><trkpt lat="44.70228381809171" lon="10.057644580892916"><ele>393.5</ele><time>2026-04-11T14:38:56Z</time></trkpt><trkpt lat="44.702298215849865" lon="10.057751659131146"><ele>393.0</ele><time>2026-04-11T14:38:57Z</time></trkpt><trkpt lat="44.70231174126674" lon="10.057853503500457"><ele>392.49999999999994</ele><time>2026-04-11T14:38:58Z</time></trkpt><trkpt lat="44.70232560029194" lon="10.057941833808659"><ele>392.0</ele><time>2026-04-11T14:38:59Z</time></trkpt><trkpt lat="44.70234715048176" lon="10.05811303234413"><ele>391.99999999999994</ele><time>2026-04-11T14:39:01Z</time></trkpt><trkpt lat="44.702356492470166" lon="10.058205185081555"><ele>392.0</ele><time>2026-04-11T14:39:02Z</time></trkpt><trkpt lat="44.70237068058423" lon="10.058325000624846"><ele>392.0</ele><time>2026-04-11T14:39:03Z</time></trkpt><trkpt lat="44.702380294840054" lon="10.058442234586849"><ele>392.0</ele><time>2026-04-11T14:39:04Z</time></trkpt><trkpt lat="44.70238499131105" lon="10.058545943295803"><ele>391.99999999999994</ele><time>2026-04-11T14:39:05Z</time></trkpt><trkpt lat="44.70239342316109" lon="10.058645342194072"><ele>392.0</ele><time>2026-04-11T14:39:06Z</time></trkpt><trkpt lat="44.70239423400123" lon="10.058741573584"><ele>390.20000000000005</ele><time>2026-04-11T14:39:07Z</time></trkpt><trkpt lat="44.70238569085299" lon="10.058918868889485"><ele>388.4</ele><time>2026-04-11T14:39:09Z</time></trkpt><trkpt lat="44.702378673369125" lon="10.059012158215628"><ele>386.6</ele><time>2026-04-11T14:39:10Z</time></trkpt><trkpt lat="44.70238890657649" lon="10.059166199059629"><ele>384.79999999999995</ele><time>2026-04-11T14:39:12Z</time></trkpt><trkpt lat="44.70241919109237" lon="10.059289451163165"><ele>383.0</ele><time>2026-04-11T14:39:14Z</time></trkpt><trkpt lat="44.70244215146784" lon="10.059449458525718"><ele>382.6666666666667</ele><time>2026-04-11T14:39:16.001Z</time></trkpt><trkpt lat="44.702443927315606" lon="10.059622438575984"><ele>382.33333333333337</ele><time>2026-04-11T14:39:18.001Z</time></trkpt><trkpt lat="44.70244527998077" lon="10.059715801742112"><ele>382.0</ele><time>2026-04-11T14:39:19.001Z</time></trkpt><trkpt lat="44.702445961634886" lon="10.05988580617526"><ele>381.6666666666667</ele><time>2026-04-11T14:39:21.001Z</time></trkpt><trkpt lat="44.70244080782686" lon="10.0599771416529"><ele>381.3333333333333</ele><time>2026-04-11T14:39:22.001Z</time></trkpt><trkpt lat="44.702438110504836" lon="10.060073327165725"><ele>381.0</ele><time>2026-04-11T14:39:23.001Z</time></trkpt><trkpt lat="44.70243450817075" lon="10.060163866546958"><ele>380.8</ele><time>2026-04-11T14:39:24.001Z</time></trkpt><trkpt lat="44.70242472942862" lon="10.06033128983493"><ele>380.6</ele><time>2026-04-11T14:39:26.001Z</time></trkpt><trkpt lat="44.70241298524975" lon="10.060504245936329"><ele>380.4</ele><time>2026-04-11T14:39:28.001Z</time></trkpt><trkpt lat="44.702412622102905" lon="10.060594721362614"><ele>380.2</ele><time>2026-04-11T14:39:29.001Z</time></trkpt><trkpt lat="44.70242355049335" lon="10.060768934009857"><ele>380.0</ele><time>2026-04-11T14:39:31.001Z</time></trkpt><trkpt lat="44.70241845648613" lon="10.060917602562983"><ele>379.6</ele><time>2026-04-11T14:39:33.001Z</time></trkpt><trkpt lat="44.70243530654637" lon="10.061070323250338"><ele>379.2</ele><time>2026-04-11T14:39:35.001Z</time></trkpt><trkpt lat="44.702446275668834" lon="10.061208625641862"><ele>378.79999999999995</ele><time>2026-04-11T14:39:37.001Z</time></trkpt><trkpt lat="44.702436802175896" lon="10.061329017854911"><ele>378.4</ele><time>2026-04-11T14:39:39.001Z</time></trkpt><trkpt lat="44.70242097278645" lon="10.061513566895888"><ele>378.0</ele><time>2026-04-11T14:39:41.001Z</time></trkpt><trkpt lat="44.70240225028223" lon="10.061618065285035"><ele>376.2</ele><time>2026-04-11T14:39:42.001Z</time></trkpt><trkpt lat="44.702389332536846" lon="10.061747441033638"><ele>374.4</ele><time>2026-04-11T14:39:43.001Z</time></trkpt><trkpt lat="44.702391836000935" lon="10.06188527361554"><ele>372.59999999999997</ele><time>2026-04-11T14:39:44.001Z</time></trkpt><trkpt lat="44.702394705490704" lon="10.062038165721173"><ele>370.79999999999995</ele><time>2026-04-11T14:39:45.001Z</time></trkpt><trkpt lat="44.7023996888524" lon="10.062202878162598"><ele>369.0</ele><time>2026-04-11T14:39:46.001Z</time></trkpt><trkpt lat="44.70239836304407" lon="10.062364676898019"><ele>368.79999999999995</ele><time>2026-04-11T14:39:47.001Z</time></trkpt><trkpt lat="44.70239818173856" lon="10.062510747286531"><ele>368.59999999999997</ele><time>2026-04-11T14:39:48.001Z</time></trkpt><trkpt lat="44.70239587175907" lon="10.062646075153353"><ele>368.4</ele><time>2026-04-11T14:39:49.001Z</time></trkpt><trkpt lat="44.70239566892161" lon="10.062766455012378"><ele>368.2</ele><time>2026-04-11T14:39:50.001Z</time></trkpt><trkpt lat="44.70238997090229" lon="10.062874170329428"><ele>368.0</ele><time>2026-04-11T14:39:51.001Z</time></trkpt><trkpt lat="44.702384133396265" lon="10.063020750609033"><ele>368.0</ele><time>2026-04-11T14:39:52.001Z</time></trkpt><trkpt lat="44.70237851976558" lon="10.063176605997867"><ele>368.0</ele><time>2026-04-11T14:39:53.001Z</time></trkpt><trkpt lat="44.70237642598931" lon="10.06332058139408"><ele>368.0</ele><time>2026-04-11T14:39:54.001Z</time></trkpt><trkpt lat="44.702369384007625" lon="10.063455304988265"><ele>368.0</ele><time>2026-04-11T14:39:55.001Z</time></trkpt><trkpt lat="44.70234916944134" lon="10.063584400325645"><ele>368.0</ele><time>2026-04-11T14:39:56.001Z</time></trkpt><trkpt lat="44.70233472026339" lon="10.063689609212005"><ele>367.83333333333337</ele><time>2026-04-11T14:39:57.001Z</time></trkpt><trkpt lat="44.70233248722081" lon="10.063800974000076"><ele>367.6666666666667</ele><time>2026-04-11T14:39:58.001Z</time></trkpt><trkpt lat="44.702330186253604" lon="10.063902644150446"><ele>367.5</ele><time>2026-04-11T14:39:59.001Z</time></trkpt><trkpt lat="44.70232098635212" lon="10.064010119123058"><ele>367.3333333333333</ele><time>2026-04-11T14:40:00.001Z</time></trkpt><trkpt lat="44.7023239796031" lon="10.0641268247324"><ele>367.16666666666663</ele><time>2026-04-11T14:40:01.001Z</time></trkpt><trkpt lat="44.70233046404125" lon="10.064263475485724"><ele>367.0</ele><time>2026-04-11T14:40:02.001Z</time></trkpt><trkpt lat="44.702333835102145" lon="10.064407088933569"><ele>365.8</ele><time>2026-04-11T14:40:03.001Z</time></trkpt><trkpt lat="44.70233770088188" lon="10.06454504909601"><ele>364.6</ele><time>2026-04-11T14:40:04.001Z</time></trkpt><trkpt lat="44.702342611997274" lon="10.064675392188011"><ele>363.40000000000003</ele><time>2026-04-11T14:40:05.001Z</time></trkpt><trkpt lat="44.70234072198939" lon="10.0648022982929"><ele>362.20000000000005</ele><time>2026-04-11T14:40:06.001Z</time></trkpt><trkpt lat="44.702345367326664" lon="10.064939257588282"><ele>361.0</ele><time>2026-04-11T14:40:07.001Z</time></trkpt><trkpt lat="44.70236511963061" lon="10.065055035435797"><ele>360.66666666666663</ele><time>2026-04-11T14:40:08.001Z</time></trkpt><trkpt lat="44.70238936239159" lon="10.06514772838744"><ele>360.3333333333333</ele><time>2026-04-11T14:40:09.002Z</time></trkpt><trkpt lat="44.702401694092664" lon="10.065247968073622"><ele>360.0</ele><time>2026-04-11T14:40:10.002Z</time></trkpt><trkpt lat="44.70241306749491" lon="10.065393253863045"><ele>359.6666666666667</ele><time>2026-04-11T14:40:11.002Z</time></trkpt><trkpt lat="44.70243473370056" lon="10.065515249961011"><ele>359.33333333333337</ele><time>2026-04-11T14:40:12.002Z</time></trkpt><trkpt lat="44.70244119489296" lon="10.065636245270307"><ele>359.0</ele><time>2026-04-11T14:40:13.002Z</time></trkpt><trkpt lat="44.70244967166601" lon="10.06575410844973"><ele>358.83333333333337</ele><time>2026-04-11T14:40:14.002Z</time></trkpt><trkpt lat="44.70246853963029" lon="10.065862689230359"><ele>358.6666666666667</ele><time>2026-04-11T14:40:15.002Z</time></trkpt><trkpt lat="44.702483254422326" lon="10.065950728703058"><ele>358.5</ele><time>2026-04-11T14:40:16.002Z</time></trkpt><trkpt lat="44.702500409880614" lon="10.066070226571048"><ele>358.3333333333333</ele><time>2026-04-11T14:40:18.002Z</time></trkpt><trkpt lat="44.702492675737446" lon="10.066229868114432"><ele>358.16666666666663</ele><time>2026-04-11T14:40:20.002Z</time></trkpt><trkpt lat="44.702500422166" lon="10.066347994046739"><ele>358.0</ele><time>2026-04-11T14:40:22.002Z</time></trkpt><trkpt lat="44.70250932508462" lon="10.066552574527275"><ele>358.3333333333333</ele><time>2026-04-11T14:40:24.002Z</time></trkpt><trkpt lat="44.7025158995562" lon="10.06665517156789"><ele>358.66666666666663</ele><time>2026-04-11T14:40:25.002Z</time></trkpt><trkpt lat="44.70255568814939" lon="10.066833592176025"><ele>359.0</ele><time>2026-04-11T14:40:27.002Z</time></trkpt><trkpt lat="44.702601817455125" lon="10.066928405921516"><ele>359.3333333333333</ele><time>2026-04-11T14:40:28.002Z</time></trkpt><trkpt lat="44.702633055990816" lon="10.067014425913671"><ele>359.6666666666667</ele><time>2026-04-11T14:40:29.002Z</time></trkpt><trkpt lat="44.70265155392499" lon="10.067125149783564"><ele>360.0</ele><time>2026-04-11T14:40:30.002Z</time></trkpt><trkpt lat="44.70266166224508" lon="10.067245496007489"><ele>360.0</ele><time>2026-04-11T14:40:31.002Z</time></trkpt><trkpt lat="44.7026875609096" lon="10.067393602153095"><ele>360.0</ele><time>2026-04-11T14:40:33.002Z</time></trkpt><trkpt lat="44.70270834938961" lon="10.067490909484825"><ele>360.0</ele><time>2026-04-11T14:40:34.002Z</time></trkpt><trkpt lat="44.702733232070266" lon="10.067611611006738"><ele>360.0</ele><time>2026-04-11T14:40:35.002Z</time></trkpt><trkpt lat="44.702751717956865" lon="10.067732661134658"><ele>360.0</ele><time>2026-04-11T14:40:36.002Z</time></trkpt><trkpt lat="44.70276949004093" lon="10.067851087560266"><ele>360.0</ele><time>2026-04-11T14:40:37.002Z</time></trkpt><trkpt lat="44.70277976538586" lon="10.067970806187512"><ele>360.4</ele><time>2026-04-11T14:40:38.002Z</time></trkpt><trkpt lat="44.70277890503932" lon="10.06808413435029"><ele>360.8</ele><time>2026-04-11T14:40:39.002Z</time></trkpt><trkpt lat="44.70280208271103" lon="10.068211340835642"><ele>361.20000000000005</ele><time>2026-04-11T14:40:41.002Z</time></trkpt><trkpt lat="44.70286847364195" lon="10.068303802772366"><ele>361.6</ele><time>2026-04-11T14:40:43.002Z</time></trkpt><trkpt lat="44.70296813228637" lon="10.068425888095625"><ele>362.0</ele><time>2026-04-11T14:40:45.002Z</time></trkpt><trkpt lat="44.70302849156916" lon="10.068501380118306"><ele>362.0</ele><time>2026-04-11T14:40:46.002Z</time></trkpt><trkpt lat="44.70308929553672" lon="10.068568675376724"><ele>362.0</ele><time>2026-04-11T14:40:47.002Z</time></trkpt><trkpt lat="44.70315535977616" lon="10.068613339842573"><ele>362.0</ele><time>2026-04-11T14:40:48.002Z</time></trkpt><trkpt lat="44.70326253024331" lon="10.06866514708552"><ele>362.0</ele><time>2026-04-11T14:40:50.002Z</time></trkpt><trkpt lat="44.703335998502105" lon="10.068793317256537"><ele>362.0</ele><time>2026-04-11T14:40:52.002Z</time></trkpt><trkpt lat="44.70335851255655" lon="10.068882562043104"><ele>362.0</ele><time>2026-04-11T14:40:53.001Z</time></trkpt><trkpt lat="44.70337824071402" lon="10.068982582933673"><ele>362.0</ele><time>2026-04-11T14:40:54.001Z</time></trkpt><trkpt lat="44.7034010356581" lon="10.069086650721184"><ele>362.0</ele><time>2026-04-11T14:40:55.001Z</time></trkpt><trkpt lat="44.70343718155715" lon="10.069247482615797"><ele>362.0</ele><time>2026-04-11T14:40:57.001Z</time></trkpt><trkpt lat="44.703465455874465" lon="10.069347894864642"><ele>362.0</ele><time>2026-04-11T14:40:58.001Z</time></trkpt><trkpt lat="44.70348348652024" lon="10.069465375515888"><ele>362.0</ele><time>2026-04-11T14:40:59.001Z</time></trkpt><trkpt lat="44.70351637587316" lon="10.069567914617823"><ele>362.0</ele><time>2026-04-11T14:41:00.001Z</time></trkpt><trkpt lat="44.70357227729717" lon="10.069710111532087"><ele>360.5</ele><time>2026-04-11T14:41:02.001Z</time></trkpt><trkpt lat="44.703612137311815" lon="10.069832930783248"><ele>359.0</ele><time>2026-04-11T14:41:04.001Z</time></trkpt><trkpt lat="44.703639782130516" lon="10.069950976124321"><ele>357.5</ele><time>2026-04-11T14:41:05.001Z</time></trkpt><trkpt lat="44.70365636412984" lon="10.07003822189942"><ele>356.0</ele><time>2026-04-11T14:41:06.001Z</time></trkpt><trkpt lat="44.70369323254836" lon="10.070154911060433"><ele>354.5</ele><time>2026-04-11T14:41:08.001Z</time></trkpt><trkpt lat="44.7037064137166" lon="10.070272804849356"><ele>353.0</ele><time>2026-04-11T14:41:10.001Z</time></trkpt><trkpt lat="44.70369926930459" lon="10.070399022227548"><ele>353.0</ele><time>2026-04-11T14:41:12.001Z</time></trkpt><trkpt lat="44.70369877375476" lon="10.07053933385694"><ele>353.0</ele><time>2026-04-11T14:41:14.001Z</time></trkpt><trkpt lat="44.703701846704305" lon="10.070693378085895"><ele>353.0</ele><time>2026-04-11T14:41:16.001Z</time></trkpt><trkpt lat="44.70369549726272" lon="10.07080348145505"><ele>353.0</ele><time>2026-04-11T14:41:18.001Z</time></trkpt><trkpt lat="44.703692957566666" lon="10.070924045067127"><ele>353.0</ele><time>2026-04-11T14:41:20.001Z</time></trkpt><trkpt lat="44.70369347628849" lon="10.071023884699287"><ele>353.0</ele><time>2026-04-11T14:41:22.001Z</time></trkpt><trkpt lat="44.703641754037804" lon="10.071084876799818"><ele>353.0</ele><time>2026-04-11T14:41:24.001Z</time></trkpt><trkpt lat="44.70359154076934" lon="10.07118280266036"><ele>353.0</ele><time>2026-04-11T14:41:26.001Z</time></trkpt><trkpt lat="44.703560424644735" lon="10.07128445032104"><ele>353.0</ele><time>2026-04-11T14:41:28.001Z</time></trkpt><trkpt lat="44.70351315533788" lon="10.071382433370633"><ele>353.0</ele><time>2026-04-11T14:41:30.001Z</time></trkpt><trkpt lat="44.70344496218333" lon="10.071452579892183"><ele>353.0</ele><time>2026-04-11T14:41:32.001Z</time></trkpt><trkpt lat="44.703376893646585" lon="10.071525402856114"><ele>353.0</ele><time>2026-04-11T14:41:34.001Z</time></trkpt><trkpt lat="44.70330910494225" lon="10.071590293391314"><ele>350.59999999999997</ele><time>2026-04-11T14:41:36.001Z</time></trkpt><trkpt lat="44.70329579081887" lon="10.07168441497476"><ele>348.2</ele><time>2026-04-11T14:41:39.001Z</time></trkpt><trkpt lat="44.70321539547844" lon="10.071790003476002"><ele>345.8</ele><time>2026-04-11T14:41:48.001Z</time></trkpt><trkpt lat="44.703110090552826" lon="10.07187465999111"><ele>343.4</ele><time>2026-04-11T14:41:50.001Z</time></trkpt><trkpt lat="44.70303086009234" lon="10.071925248524431"><ele>341.0</ele><time>2026-04-11T14:41:51.001Z</time></trkpt><trkpt lat="44.702965047788226" lon="10.071967000427172"><ele>341.0</ele><time>2026-04-11T14:41:52.001Z</time></trkpt><trkpt lat="44.702903931616525" lon="10.071996309023268"><ele>341.0</ele><time>2026-04-11T14:41:53.001Z</time></trkpt><trkpt lat="44.70284124651038" lon="10.072039454642525"><ele>341.0</ele><time>2026-04-11T14:41:54.001Z</time></trkpt><trkpt lat="44.70277891194978" lon="10.072089797567923"><ele>341.0</ele><time>2026-04-11T14:41:55.001Z</time></trkpt><trkpt lat="44.702727824559055" lon="10.072143259698324"><ele>341.0</ele><time>2026-04-11T14:41:56.001Z</time></trkpt><trkpt lat="44.70264605133386" lon="10.072263837216997"><ele>341.0</ele><time>2026-04-11T14:41:58.001Z</time></trkpt><trkpt lat="44.70257898761774" lon="10.072393112376208"><ele>338.8</ele><time>2026-04-11T14:42:00.001Z</time></trkpt><trkpt lat="44.702537167099635" lon="10.07251832417098"><ele>336.6</ele><time>2026-04-11T14:42:02.001Z</time></trkpt><trkpt lat="44.70247655209527" lon="10.072657198925482"><ele>334.4</ele><time>2026-04-11T14:42:04.001Z</time></trkpt><trkpt lat="44.70240056021148" lon="10.072776165999533"><ele>332.2</ele><time>2026-04-11T14:42:06.001Z</time></trkpt><trkpt lat="44.702301247681405" lon="10.072868264083665"><ele>330.0</ele><time>2026-04-11T14:42:08.001Z</time></trkpt><trkpt lat="44.70220038045487" lon="10.072956133719071"><ele>330.0</ele><time>2026-04-11T14:42:10.001Z</time></trkpt><trkpt lat="44.70214176181566" lon="10.073011075604086"><ele>330.0</ele><time>2026-04-11T14:42:12.001Z</time></trkpt><trkpt lat="44.70207519485062" lon="10.073048261708035"><ele>330.0</ele><time>2026-04-11T14:42:15.001Z</time></trkpt><trkpt lat="44.702017879110485" lon="10.073117298473592"><ele>330.0</ele><time>2026-04-11T14:42:17.001Z</time></trkpt><trkpt lat="44.7019671417524" lon="10.073191790288636"><ele>330.0</ele><time>2026-04-11T14:42:19.002Z</time></trkpt><trkpt lat="44.701912194180125" lon="10.073247780135102"><ele>330.0</ele><time>2026-04-11T14:42:21.002Z</time></trkpt><trkpt lat="44.701819633435925" lon="10.073386483438718"><ele>328.42857142857144</ele><time>2026-04-11T14:42:23.002Z</time></trkpt><trkpt lat="44.7017686487186" lon="10.073443611545486"><ele>326.8571428571429</ele><time>2026-04-11T14:42:24.002Z</time></trkpt><trkpt lat="44.701719144423485" lon="10.073511470726586"><ele>325.28571428571433</ele><time>2026-04-11T14:42:25.002Z</time></trkpt><trkpt lat="44.701671937682335" lon="10.073581532946404"><ele>323.7142857142857</ele><time>2026-04-11T14:42:26.002Z</time></trkpt><trkpt lat="44.70162268435531" lon="10.073656182636123"><ele>322.1428571428571</ele><time>2026-04-11T14:42:27.002Z</time></trkpt><trkpt lat="44.701572918429136" lon="10.073733813458471"><ele>320.5714285714286</ele><time>2026-04-11T14:42:28.002Z</time></trkpt><trkpt lat="44.701527998731166" lon="10.07380532331012"><ele>319.0</ele><time>2026-04-11T14:42:29.002Z</time></trkpt><trkpt lat="44.70145748818566" lon="10.073918512001118"><ele>319.0</ele><time>2026-04-11T14:42:31.002Z</time></trkpt><trkpt lat="44.70141338895501" lon="10.073984861682133"><ele>319.0</ele><time>2026-04-11T14:42:32.002Z</time></trkpt><trkpt lat="44.70133093305032" lon="10.074096838626078"><ele>319.0</ele><time>2026-04-11T14:42:34.002Z</time></trkpt><trkpt lat="44.70127663474743" lon="10.074161591274901"><ele>319.0</ele><time>2026-04-11T14:42:35.002Z</time></trkpt><trkpt lat="44.701224186886115" lon="10.074246555624626"><ele>319.0</ele><time>2026-04-11T14:42:36.002Z</time></trkpt><trkpt lat="44.70117404804535" lon="10.0743324405265"><ele>319.0</ele><time>2026-04-11T14:42:37.002Z</time></trkpt><trkpt lat="44.701115484398706" lon="10.074428375231419"><ele>317.59999999999997</ele><time>2026-04-11T14:42:38.002Z</time></trkpt><trkpt lat="44.701061403259075" lon="10.0745285829499"><ele>316.2</ele><time>2026-04-11T14:42:39.002Z</time></trkpt><trkpt lat="44.70101907874583" lon="10.074622630910403"><ele>314.79999999999995</ele><time>2026-04-11T14:42:40.002Z</time></trkpt><trkpt lat="44.70095247695306" lon="10.074754537079679"><ele>313.4</ele><time>2026-04-11T14:42:41.002Z</time></trkpt><trkpt lat="44.70087576898194" lon="10.074873872914868"><ele>312.0</ele><time>2026-04-11T14:42:42.002Z</time></trkpt><trkpt lat="44.70082251036384" lon="10.074957095741446"><ele>312.0</ele><time>2026-04-11T14:42:43.002Z</time></trkpt><trkpt lat="44.7007609352647" lon="10.075057409203836"><ele>312.0</ele><time>2026-04-11T14:42:44.002Z</time></trkpt><trkpt lat="44.700713316348406" lon="10.07513685140431"><ele>312.0</ele><time>2026-04-11T14:42:45.002Z</time></trkpt><trkpt lat="44.70066702907465" lon="10.075212790707276"><ele>312.0</ele><time>2026-04-11T14:42:46.002Z</time></trkpt><trkpt lat="44.70062660431816" lon="10.07528986412582"><ele>312.0</ele><time>2026-04-11T14:42:47.002Z</time></trkpt><trkpt lat="44.700585535397025" lon="10.075358579456147"><ele>312.0</ele><time>2026-04-11T14:42:48.002Z</time></trkpt><trkpt lat="44.7005384379781" lon="10.075457155143251"><ele>312.0</ele><time>2026-04-11T14:42:49.002Z</time></trkpt><trkpt lat="44.70049335747788" lon="10.075531604542393"><ele>312.0</ele><time>2026-04-11T14:42:50.002Z</time></trkpt><trkpt lat="44.700447905819864" lon="10.075593232806424"><ele>312.0</ele><time>2026-04-11T14:42:51.002Z</time></trkpt><trkpt lat="44.700400801568044" lon="10.075672407538276"><ele>312.0</ele><time>2026-04-11T14:42:52.002Z</time></trkpt><trkpt lat="44.700331438962365" lon="10.075799649817139"><ele>312.0</ele><time>2026-04-11T14:42:54.002Z</time></trkpt><trkpt lat="44.70028527712293" lon="10.075883880021427"><ele>312.0</ele><time>2026-04-11T14:42:55.002Z</time></trkpt><trkpt lat="44.700218425914706" lon="10.076022788899069"><ele>310.2</ele><time>2026-04-11T14:42:57.002Z</time></trkpt><trkpt lat="44.700187622702124" lon="10.076100385398368"><ele>308.4</ele><time>2026-04-11T14:42:58.002Z</time></trkpt><trkpt lat="44.700136747905475" lon="10.076239539417871"><ele>306.6</ele><time>2026-04-11T14:43:00.001Z</time></trkpt><trkpt lat="44.70009882653861" lon="10.076353863670034"><ele>304.8</ele><time>2026-04-11T14:43:02.001Z</time></trkpt><trkpt lat="44.700056297750685" lon="10.076496754573103"><ele>303.0</ele><time>2026-04-11T14:43:04.001Z</time></trkpt><trkpt lat="44.70001976231886" lon="10.076613962292916"><ele>302.2857142857143</ele><time>2026-04-11T14:43:06.001Z</time></trkpt><trkpt lat="44.69998476432636" lon="10.076715858939"><ele>301.57142857142856</ele><time>2026-04-11T14:43:08.001Z</time></trkpt><trkpt lat="44.69995013800833" lon="10.076800805660232"><ele>300.85714285714283</ele><time>2026-04-11T14:43:10Z</time></trkpt><trkpt lat="44.69990974662403" lon="10.07690868168663"><ele>300.1428571428571</ele><time>2026-04-11T14:43:13Z</time></trkpt><trkpt lat="44.699876250078695" lon="10.076990304759923"><ele>299.4285714285714</ele><time>2026-04-11T14:43:16Z</time></trkpt><trkpt lat="44.69983582820104" lon="10.077072124229453"><ele>298.7142857142857</ele><time>2026-04-11T14:43:19Z</time></trkpt><trkpt lat="44.69978024668937" lon="10.077140104094287"><ele>298.0</ele><time>2026-04-11T14:43:21Z</time></trkpt><trkpt lat="44.69972079643685" lon="10.077250602617115"><ele>298.0</ele><time>2026-04-11T14:43:23Z</time></trkpt><trkpt lat="44.69970778439067" lon="10.077376514948101"><ele>298.0</ele><time>2026-04-11T14:43:25Z</time></trkpt><trkpt lat="44.69968854663558" lon="10.07746383890429"><ele>298.0</ele><time>2026-04-11T14:43:27Z</time></trkpt><trkpt lat="44.69963583119589" lon="10.077578064397091"><ele>298.0</ele><time>2026-04-11T14:43:29Z</time></trkpt><trkpt lat="44.6996075200345" lon="10.077685160343147"><ele>298.0</ele><time>2026-04-11T14:43:31Z</time></trkpt><trkpt lat="44.6995683320992" lon="10.077754635350571"><ele>298.0</ele><time>2026-04-11T14:43:33Z</time></trkpt><trkpt lat="44.69952933679923" lon="10.077843764029799"><ele>295.8</ele><time>2026-04-11T14:43:35Z</time></trkpt><trkpt lat="44.69950457628889" lon="10.077987562554387"><ele>293.6</ele><time>2026-04-11T14:43:38Z</time></trkpt><trkpt lat="44.699468936310865" lon="10.078106095280596"><ele>291.4</ele><time>2026-04-11T14:43:40.001Z</time></trkpt><trkpt lat="44.69942239728193" lon="10.07822238169745"><ele>289.2</ele><time>2026-04-11T14:43:42.001Z</time></trkpt><trkpt lat="44.6993705485158" lon="10.07833447163247"><ele>287.0</ele><time>2026-04-11T14:43:44.001Z</time></trkpt><trkpt lat="44.69932488745135" lon="10.078442619659787"><ele>283.1666666666667</ele><time>2026-04-11T14:43:46.001Z</time></trkpt><trkpt lat="44.6992739691607" lon="10.078540584372877"><ele>279.33333333333337</ele><time>2026-04-11T14:43:48.001Z</time></trkpt><trkpt lat="44.69925469930349" lon="10.078625340971076"><ele>275.5</ele><time>2026-04-11T14:43:50.001Z</time></trkpt><trkpt lat="44.69920075234004" lon="10.078730475143127"><ele>271.6666666666667</ele><time>2026-04-11T14:43:52.001Z</time></trkpt><trkpt lat="44.6991376941294" lon="10.078820461418932"><ele>267.8333333333333</ele><time>2026-04-11T14:43:54.001Z</time></trkpt><trkpt lat="44.699081403176095" lon="10.078947485579828"><ele>264.0</ele><time>2026-04-11T14:43:56.001Z</time></trkpt><trkpt lat="44.69903881490802" lon="10.079013405260303"><ele>262.0</ele><time>2026-04-11T14:43:57.001Z</time></trkpt><trkpt lat="44.698978253183554" lon="10.079142325803257"><ele>260.0</ele><time>2026-04-11T14:43:59.001Z</time></trkpt><trkpt lat="44.698935305458185" lon="10.079271335147396"><ele>258.0</ele><time>2026-04-11T14:44:01.001Z</time></trkpt><trkpt lat="44.69886950460557" lon="10.079350490900758"><ele>256.0</ele><time>2026-04-11T14:44:03.001Z</time></trkpt><trkpt lat="44.698792008257115" lon="10.079411048810998"><ele>254.0</ele><time>2026-04-11T14:44:05.001Z</time></trkpt><trkpt lat="44.69870975778668" lon="10.07946235201026"><ele>254.0</ele><time>2026-04-11T14:44:08.001Z</time></trkpt><trkpt lat="44.69864984971662" lon="10.079543064631135"><ele>253.99999999999997</ele><time>2026-04-11T14:44:10.001Z</time></trkpt><trkpt lat="44.69858020821162" lon="10.079665945675346"><ele>253.99999999999997</ele><time>2026-04-11T14:44:12.001Z</time></trkpt><trkpt lat="44.69852649761814" lon="10.079775261083935"><ele>254.0</ele><time>2026-04-11T14:44:14.001Z</time></trkpt><trkpt lat="44.69849734990044" lon="10.079900537660897"><ele>254.0</ele><time>2026-04-11T14:44:16.001Z</time></trkpt><trkpt lat="44.698438454590814" lon="10.079961946574322"><ele>251.50000000000003</ele><time>2026-04-11T14:44:18.001Z</time></trkpt><trkpt lat="44.6983753284488" lon="10.08001474337941"><ele>249.0</ele><time>2026-04-11T14:44:20.001Z</time></trkpt><trkpt lat="44.6983275630399" lon="10.080121388858299"><ele>246.5</ele><time>2026-04-11T14:44:22.001Z</time></trkpt><trkpt lat="44.698281699206575" lon="10.080205973621654"><ele>244.0</ele><time>2026-04-11T14:44:24.001Z</time></trkpt><trkpt lat="44.698214482574734" lon="10.080250607035458"><ele>241.50000000000003</ele><time>2026-04-11T14:44:26.001Z</time></trkpt><trkpt lat="44.69813845809244" lon="10.080341594794263"><ele>239.0</ele><time>2026-04-11T14:44:28.001Z</time></trkpt><trkpt lat="44.69809724801574" lon="10.080446423503505"><ele>239.00000000000003</ele><time>2026-04-11T14:44:30.001Z</time></trkpt><trkpt lat="44.698061918654616" lon="10.080547648651509"><ele>239.0</ele><time>2026-04-11T14:44:32.001Z</time></trkpt><trkpt lat="44.69801920612048" lon="10.08061981178897"><ele>239.0</ele><time>2026-04-11T14:44:34.001Z</time></trkpt><trkpt lat="44.697956948409484" lon="10.080674335589846"><ele>239.0</ele><time>2026-04-11T14:44:36.001Z</time></trkpt><trkpt lat="44.69790213084324" lon="10.080744894191927"><ele>239.00000000000003</ele><time>2026-04-11T14:44:38.001Z</time></trkpt><trkpt lat="44.697822812003274" lon="10.080814168625022"><ele>239.0</ele><time>2026-04-11T14:44:40.001Z</time></trkpt><trkpt lat="44.697738761433726" lon="10.080879021945377"><ele>235.00000000000003</ele><time>2026-04-11T14:44:42.001Z</time></trkpt><trkpt lat="44.69769825261438" lon="10.08095938822568"><ele>231.0</ele><time>2026-04-11T14:44:44.001Z</time></trkpt><trkpt lat="44.697634667396116" lon="10.081025505532606"><ele>227.0</ele><time>2026-04-11T14:44:46.001Z</time></trkpt><trkpt lat="44.69758279008351" lon="10.081102594068154"><ele>223.0</ele><time>2026-04-11T14:44:48.002Z</time></trkpt><trkpt lat="44.697499044083905" lon="10.08117438078599"><ele>219.00000000000003</ele><time>2026-04-11T14:44:51.002Z</time></trkpt><trkpt lat="44.69743897893714" lon="10.081232742591737"><ele>215.0</ele><time>2026-04-11T14:44:53.002Z</time></trkpt><trkpt lat="44.69736831338956" lon="10.081320685160104"><ele>215.0</ele><time>2026-04-11T14:44:55.002Z</time></trkpt><trkpt lat="44.697327911129044" lon="10.08141581171282"><ele>215.0</ele><time>2026-04-11T14:44:57.002Z</time></trkpt><trkpt lat="44.697289831501614" lon="10.081516054500097"><ele>215.0</ele><time>2026-04-11T14:44:59.002Z</time></trkpt><trkpt lat="44.69724699204624" lon="10.081615560739538"><ele>215.0</ele><time>2026-04-11T14:45:02.002Z</time></trkpt><trkpt lat="44.6971245456119" lon="10.081654890093974"><ele>215.0</ele><time>2026-04-11T14:45:03.002Z</time></trkpt><trkpt lat="44.69711865931726" lon="10.081770263794134"><ele>212.6</ele><time>2026-04-11T14:45:06Z</time></trkpt><trkpt lat="44.69710749443441" lon="10.081885829990718"><ele>210.2</ele><time>2026-04-11T14:45:09Z</time></trkpt><trkpt lat="44.69711179009208" lon="10.081977469677325"><ele>207.8</ele><time>2026-04-11T14:45:11Z</time></trkpt><trkpt lat="44.69707206991275" lon="10.082125461602597"><ele>205.4</ele><time>2026-04-11T14:45:13Z</time></trkpt><trkpt lat="44.69701424944556" lon="10.082258822906827"><ele>203.0</ele><time>2026-04-11T14:45:14Z</time></trkpt><trkpt lat="44.69695200968908" lon="10.082406697021593"><ele>199.0</ele><time>2026-04-11T14:45:15Z</time></trkpt><trkpt lat="44.69688913505948" lon="10.082547526838345"><ele>195.0</ele><time>2026-04-11T14:45:16Z</time></trkpt><trkpt lat="44.69682894316138" lon="10.082678907393714"><ele>191.0</ele><time>2026-04-11T14:45:17Z</time></trkpt><trkpt lat="44.69676637195882" lon="10.08280615159252"><ele>187.0</ele><time>2026-04-11T14:45:18Z</time></trkpt><trkpt lat="44.69671506651607" lon="10.082929714497865"><ele>183.0</ele><time>2026-04-11T14:45:19Z</time></trkpt><trkpt lat="44.6966633711306" lon="10.083041217244157"><ele>183.0</ele><time>2026-04-11T14:45:20Z</time></trkpt><trkpt lat="44.69660968700555" lon="10.083150325232518"><ele>183.0</ele><time>2026-04-11T14:45:21Z</time></trkpt><trkpt lat="44.696553710488345" lon="10.083259293002863"><ele>183.0</ele><time>2026-04-11T14:45:22Z</time></trkpt><trkpt lat="44.696489204949486" lon="10.083372454399035"><ele>183.0</ele><time>2026-04-11T14:45:23Z</time></trkpt><trkpt lat="44.69642029718474" lon="10.083477691246218"><ele>183.0</ele><time>2026-04-11T14:45:24Z</time></trkpt><trkpt lat="44.696334206378026" lon="10.083557515672743"><ele>181.4</ele><time>2026-04-11T14:45:25Z</time></trkpt><trkpt lat="44.6962572283278" lon="10.083649195005203"><ele>179.8</ele><time>2026-04-11T14:45:26Z</time></trkpt><trkpt lat="44.696181836794544" lon="10.083752692938267"><ele>178.2</ele><time>2026-04-11T14:45:27Z</time></trkpt><trkpt lat="44.69611153389589" lon="10.083845296819977"><ele>176.6</ele><time>2026-04-11T14:45:28Z</time></trkpt><trkpt lat="44.69604879514168" lon="10.083951363970945"><ele>175.0</ele><time>2026-04-11T14:45:29Z</time></trkpt><trkpt lat="44.69599558327912" lon="10.084061786260717"><ele>174.16666666666669</ele><time>2026-04-11T14:45:30Z</time></trkpt><trkpt lat="44.6959390498605" lon="10.08416466686596"><ele>173.33333333333334</ele><time>2026-04-11T14:45:31Z</time></trkpt><trkpt lat="44.69587917017683" lon="10.084258335941076"><ele>172.5</ele><time>2026-04-11T14:45:32Z</time></trkpt><trkpt lat="44.69581331247563" lon="10.08433730606213"><ele>171.66666666666666</ele><time>2026-04-11T14:45:33Z</time></trkpt><trkpt lat="44.69574015900262" lon="10.084406188655086"><ele>170.83333333333331</ele><time>2026-04-11T14:45:34Z</time></trkpt><trkpt lat="44.69566622696368" lon="10.084465918236353"><ele>170.0</ele><time>2026-04-11T14:45:35Z</time></trkpt><trkpt lat="44.69558847377612" lon="10.084522257663641"><ele>170.0</ele><time>2026-04-11T14:45:36Z</time></trkpt><trkpt lat="44.695514591883075" lon="10.084578229682734"><ele>170.0</ele><time>2026-04-11T14:45:37Z</time></trkpt><trkpt lat="44.6954425829989" lon="10.084652357330713"><ele>170.0</ele><time>2026-04-11T14:45:38Z</time></trkpt><trkpt lat="44.695375769323064" lon="10.084741856714885"><ele>170.0</ele><time>2026-04-11T14:45:39Z</time></trkpt><trkpt lat="44.6953191446677" lon="10.084838188598294"><ele>170.0</ele><time>2026-04-11T14:45:40Z</time></trkpt><trkpt lat="44.69526187698767" lon="10.084937701391235"><ele>170.0</ele><time>2026-04-11T14:45:41Z</time></trkpt><trkpt lat="44.69520784636337" lon="10.085017278984914"><ele>157.0</ele><time>2026-04-11T14:45:42.001Z</time></trkpt><trkpt lat="44.69516199299061" lon="10.085093632608167"><ele>157.0</ele><time>2026-04-11T14:45:43.001Z</time></trkpt><trkpt lat="44.6951167382032" lon="10.085171125928252"><ele>157.0</ele><time>2026-04-11T14:45:44.001Z</time></trkpt><trkpt lat="44.69507385841564" lon="10.085247710853785"><ele>157.0</ele><time>2026-04-11T14:45:45.001Z</time></trkpt><trkpt lat="44.69500598700749" lon="10.085360485105731"><ele>157.0</ele><time>2026-04-11T14:45:47.001Z</time></trkpt></trkseg></trk></gpx>